<?xml version='1.0' encoding='UTF-8'?><gpx version="1.1" creator="JPX - https://github.com/jenetics/jpx" xmlns="http://www.topografix.com/GPX/1/1"><trk><trkseg><trkpt lat="45.75755" lon="11.3604967"><ele>670.0</ele><time>2026-04-15T14:35:50.087Z</time></trkpt><trkpt lat="45.7576233" lon="11.3606167"><ele>669.0</ele><time>2026-04-15T14:35:52.086Z</time></trkpt><trkpt lat="45.757665" lon="11.3606917"><ele>668.0</ele><time>2026-04-15T14:35:53.086Z</time></trkpt><trkpt lat="45.7577183" lon="11.360795"><ele>667.0</ele><time>2026-04-15T14:35:54.086Z</time></trkpt><trkpt lat="45.7577667" lon="11.36091"><ele>666.0</ele><time>2026-04-15T14:35:55.086Z</time></trkpt><trkpt lat="45.7578033" lon="11.3610417"><ele>668.8</ele><time>2026-04-15T14:35:56.086Z</time></trkpt><trkpt lat="45.7578433" lon="11.3611717"><ele>671.5999999999999</ele><time>2026-04-15T14:35:57.087Z</time></trkpt><trkpt lat="45.75787" lon="11.3613133"><ele>674.4</ele><time>2026-04-15T14:35:58.086Z</time></trkpt><trkpt lat="45.75789" lon="11.3614567"><ele>677.2</ele><time>2026-04-15T14:35:59.087Z</time></trkpt><trkpt lat="45.7578917" lon="11.3615967"><ele>680.0</ele><time>2026-04-15T14:36:00.087Z</time></trkpt><trkpt lat="45.757875" lon="11.3617217"><ele>681.0</ele><time>2026-04-15T14:36:01.086Z</time></trkpt><trkpt lat="45.7578367" lon="11.3618417"><ele>682.0</ele><time>2026-04-15T14:36:02.087Z</time></trkpt><trkpt lat="45.7577817" lon="11.3619517"><ele>683.0</ele><time>2026-04-15T14:36:03.087Z</time></trkpt><trkpt lat="45.75772" lon="11.3620483"><ele>684.0</ele><time>2026-04-15T14:36:04.086Z</time></trkpt><trkpt lat="45.7576467" lon="11.3621267"><ele>685.0</ele><time>2026-04-15T14:36:05.087Z</time></trkpt><trkpt lat="45.7575717" lon="11.3622017"><ele>682.8</ele><time>2026-04-15T14:36:06.087Z</time></trkpt><trkpt lat="45.7574933" lon="11.3622733"><ele>680.6</ele><time>2026-04-15T14:36:07.086Z</time></trkpt><trkpt lat="45.757405" lon="11.36233"><ele>678.4000000000001</ele><time>2026-04-15T14:36:08.086Z</time></trkpt><trkpt lat="45.7573267" lon="11.3624"><ele>676.2</ele><time>2026-04-15T14:36:09.086Z</time></trkpt><trkpt lat="45.7572417" lon="11.36247"><ele>674.0</ele><time>2026-04-15T14:36:10.087Z</time></trkpt><trkpt lat="45.757155" lon="11.36255"><ele>674.0</ele><time>2026-04-15T14:36:11.087Z</time></trkpt><trkpt lat="45.7570583" lon="11.3626283"><ele>674.0</ele><time>2026-04-15T14:36:12.087Z</time></trkpt><trkpt lat="45.756965" lon="11.3627183"><ele>674.0</ele><time>2026-04-15T14:36:13.086Z</time></trkpt><trkpt lat="45.7568633" lon="11.3628033"><ele>674.0</ele><time>2026-04-15T14:36:14.087Z</time></trkpt><trkpt lat="45.7567617" lon="11.3628783"><ele>669.75</ele><time>2026-04-15T14:36:15.087Z</time></trkpt><trkpt lat="45.75666" lon="11.3629683"><ele>665.5</ele><time>2026-04-15T14:36:16.087Z</time></trkpt><trkpt lat="45.7565783" lon="11.3630783"><ele>661.25</ele><time>2026-04-15T14:36:17.086Z</time></trkpt><trkpt lat="45.756505" lon="11.36319"><ele>657.0</ele><time>2026-04-15T14:36:18.087Z</time></trkpt><trkpt lat="45.7564267" lon="11.3633133"><ele>657.0</ele><time>2026-04-15T14:36:19.087Z</time></trkpt><trkpt lat="45.7563533" lon="11.363435"><ele>657.0</ele><time>2026-04-15T14:36:20.086Z</time></trkpt><trkpt lat="45.7563067" lon="11.3635633"><ele>657.0</ele><time>2026-04-15T14:36:21.087Z</time></trkpt><trkpt lat="45.7562767" lon="11.3636817"><ele>657.0</ele><time>2026-04-15T14:36:22.086Z</time></trkpt><trkpt lat="45.7562533" lon="11.3637967"><ele>657.0</ele><time>2026-04-15T14:36:23.086Z</time></trkpt><trkpt lat="45.7562467" lon="11.3639083"><ele>657.6</ele><time>2026-04-15T14:36:24.087Z</time></trkpt><trkpt lat="45.75625" lon="11.3640167"><ele>658.2</ele><time>2026-04-15T14:36:25.087Z</time></trkpt><trkpt lat="45.7562767" lon="11.36413"><ele>658.8</ele><time>2026-04-15T14:36:26.087Z</time></trkpt><trkpt lat="45.7563317" lon="11.36425"><ele>659.4</ele><time>2026-04-15T14:36:27.086Z</time></trkpt><trkpt lat="45.7563733" lon="11.3643733"><ele>660.0</ele><time>2026-04-15T14:36:28.087Z</time></trkpt><trkpt lat="45.7563967" lon="11.36451"><ele>660.0</ele><time>2026-04-15T14:36:29.086Z</time></trkpt><trkpt lat="45.756395" lon="11.3646533"><ele>660.0</ele><time>2026-04-15T14:36:30.087Z</time></trkpt><trkpt lat="45.756385" lon="11.3647967"><ele>660.0</ele><time>2026-04-15T14:36:31.087Z</time></trkpt><trkpt lat="45.75638" lon="11.3649317"><ele>660.0</ele><time>2026-04-15T14:36:32.086Z</time></trkpt><trkpt lat="45.7563817" lon="11.365075"><ele>660.0</ele><time>2026-04-15T14:36:33.087Z</time></trkpt><trkpt lat="45.7563917" lon="11.3652183"><ele>658.8333333333334</ele><time>2026-04-15T14:36:34.086Z</time></trkpt><trkpt lat="45.7564" lon="11.365355"><ele>657.6666666666666</ele><time>2026-04-15T14:36:35.086Z</time></trkpt><trkpt lat="45.7564467" lon="11.3654783"><ele>656.5</ele><time>2026-04-15T14:36:36.087Z</time></trkpt><trkpt lat="45.75651" lon="11.36557"><ele>655.3333333333333</ele><time>2026-04-15T14:36:37.087Z</time></trkpt><trkpt lat="45.7565683" lon="11.3656533"><ele>654.1666666666666</ele><time>2026-04-15T14:36:38.086Z</time></trkpt><trkpt lat="45.7566133" lon="11.3657333"><ele>653.0</ele><time>2026-04-15T14:36:39.086Z</time></trkpt><trkpt lat="45.756685" lon="11.36586"><ele>653.0</ele><time>2026-04-15T14:36:41.085Z</time></trkpt><trkpt lat="45.75666" lon="11.3659467"><ele>653.0</ele><time>2026-04-15T14:36:43.086Z</time></trkpt><trkpt lat="45.7565583" lon="11.3658483"><ele>653.0</ele><time>2026-04-15T14:36:45.086Z</time></trkpt><trkpt lat="45.7564767" lon="11.365735"><ele>653.0</ele><time>2026-04-15T14:36:46.086Z</time></trkpt><trkpt lat="45.756395" lon="11.365595"><ele>653.0</ele><time>2026-04-15T14:36:47.085Z</time></trkpt><trkpt lat="45.75632" lon="11.36544"><ele>653.0</ele><time>2026-04-15T14:36:48.086Z</time></trkpt><trkpt lat="45.756235" lon="11.3652317"><ele>653.0</ele><time>2026-04-15T14:36:49.086Z</time></trkpt><trkpt lat="45.756165" lon="11.3650133"><ele>653.0</ele><time>2026-04-15T14:36:50.086Z</time></trkpt><trkpt lat="45.7561067" lon="11.36482"><ele>654.75</ele><time>2026-04-15T14:36:51.086Z</time></trkpt><trkpt lat="45.7560467" lon="11.3646583"><ele>656.5</ele><time>2026-04-15T14:36:52.085Z</time></trkpt><trkpt lat="45.755955" lon="11.3645317"><ele>658.25</ele><time>2026-04-15T14:36:53.086Z</time></trkpt><trkpt lat="45.7558517" lon="11.364415"><ele>660.0</ele><time>2026-04-15T14:36:54.085Z</time></trkpt><trkpt lat="45.755705" lon="11.3643017"><ele>650.3333333333334</ele><time>2026-04-15T14:36:55.086Z</time></trkpt><trkpt lat="45.7555617" lon="11.3641667"><ele>640.6666666666667</ele><time>2026-04-15T14:36:56.086Z</time></trkpt><trkpt lat="45.7554333" lon="11.3640333"><ele>631.0</ele><time>2026-04-15T14:36:57.086Z</time></trkpt><trkpt lat="45.7553483" lon="11.3638917"><ele>630.75</ele><time>2026-04-15T14:36:58.086Z</time></trkpt><trkpt lat="45.7552533" lon="11.3638"><ele>630.5</ele><time>2026-04-15T14:36:59.086Z</time></trkpt><trkpt lat="45.7551433" lon="11.3637583"><ele>630.25</ele><time>2026-04-15T14:37:00.086Z</time></trkpt><trkpt lat="45.7550283" lon="11.3637317"><ele>630.0</ele><time>2026-04-15T14:37:01.086Z</time></trkpt><trkpt lat="45.754915" lon="11.3637333"><ele>626.6</ele><time>2026-04-15T14:37:02.086Z</time></trkpt><trkpt lat="45.7548083" lon="11.363755"><ele>623.2</ele><time>2026-04-15T14:37:03.085Z</time></trkpt><trkpt lat="45.7547183" lon="11.3638"><ele>619.8</ele><time>2026-04-15T14:37:04.086Z</time></trkpt><trkpt lat="45.754645" lon="11.36389"><ele>616.4</ele><time>2026-04-15T14:37:05.086Z</time></trkpt><trkpt lat="45.7545917" lon="11.3640033"><ele>613.0</ele><time>2026-04-15T14:37:06.085Z</time></trkpt><trkpt lat="45.7545367" lon="11.3641033"><ele>613.0</ele><time>2026-04-15T14:37:07.086Z</time></trkpt><trkpt lat="45.75449" lon="11.3642"><ele>613.0</ele><time>2026-04-15T14:37:08.085Z</time></trkpt><trkpt lat="45.7544583" lon="11.3642917"><ele>613.0</ele><time>2026-04-15T14:37:09.085Z</time></trkpt><trkpt lat="45.7544517" lon="11.3643833"><ele>613.0</ele><time>2026-04-15T14:37:10.086Z</time></trkpt><trkpt lat="45.7544783" lon="11.364475"><ele>613.0</ele><time>2026-04-15T14:37:11.085Z</time></trkpt><trkpt lat="45.7545383" lon="11.3645667"><ele>613.0</ele><time>2026-04-15T14:37:12.085Z</time></trkpt><trkpt lat="45.7546217" lon="11.3646283"><ele>613.0</ele><time>2026-04-15T14:37:13.086Z</time></trkpt><trkpt lat="45.7547133" lon="11.3646533"><ele>613.0</ele><time>2026-04-15T14:37:14.086Z</time></trkpt><trkpt lat="45.75483" lon="11.3646567"><ele>613.0</ele><time>2026-04-15T14:37:15.086Z</time></trkpt><trkpt lat="45.7549717" lon="11.36464"><ele>613.0</ele><time>2026-04-15T14:37:16.085Z</time></trkpt><trkpt lat="45.7551017" lon="11.364645"><ele>614.6</ele><time>2026-04-15T14:37:17.085Z</time></trkpt><trkpt lat="45.7552167" lon="11.36465"><ele>616.1999999999999</ele><time>2026-04-15T14:37:18.086Z</time></trkpt><trkpt lat="45.75532" lon="11.3646683"><ele>617.8</ele><time>2026-04-15T14:37:19.085Z</time></trkpt><trkpt lat="45.7554017" lon="11.3647117"><ele>619.4</ele><time>2026-04-15T14:37:20.086Z</time></trkpt><trkpt lat="45.7554783" lon="11.3647767"><ele>621.0</ele><time>2026-04-15T14:37:21.085Z</time></trkpt><trkpt lat="45.755525" lon="11.364855"><ele>621.0</ele><time>2026-04-15T14:37:22.085Z</time></trkpt><trkpt lat="45.7555367" lon="11.3649683"><ele>621.0</ele><time>2026-04-15T14:37:23.086Z</time></trkpt><trkpt lat="45.7555333" lon="11.3650833"><ele>621.0</ele><time>2026-04-15T14:37:24.085Z</time></trkpt><trkpt lat="45.75552" lon="11.3652133"><ele>621.0</ele><time>2026-04-15T14:37:25.085Z</time></trkpt><trkpt lat="45.75554" lon="11.36533"><ele>621.0</ele><time>2026-04-15T14:37:26.085Z</time></trkpt><trkpt lat="45.7555983" lon="11.3654267"><ele>621.0</ele><time>2026-04-15T14:37:27.086Z</time></trkpt><trkpt lat="45.7556833" lon="11.3654883"><ele>618.2</ele><time>2026-04-15T14:37:28.086Z</time></trkpt><trkpt lat="45.7557683" lon="11.3655467"><ele>615.4000000000001</ele><time>2026-04-15T14:37:29.085Z</time></trkpt><trkpt lat="45.755835" lon="11.3656083"><ele>612.6</ele><time>2026-04-15T14:37:30.086Z</time></trkpt><trkpt lat="45.7559" lon="11.3656983"><ele>609.8000000000001</ele><time>2026-04-15T14:37:31.085Z</time></trkpt><trkpt lat="45.7559483" lon="11.36581"><ele>607.0</ele><time>2026-04-15T14:37:32.085Z</time></trkpt><trkpt lat="45.7559817" lon="11.365955"><ele>607.0</ele><time>2026-04-15T14:37:33.086Z</time></trkpt><trkpt lat="45.7559767" lon="11.3661417"><ele>607.0</ele><time>2026-04-15T14:37:34.086Z</time></trkpt><trkpt lat="45.7559517" lon="11.3663317"><ele>607.0</ele><time>2026-04-15T14:37:35.086Z</time></trkpt><trkpt lat="45.7559367" lon="11.3664933"><ele>607.0</ele><time>2026-04-15T14:37:36.085Z</time></trkpt><trkpt lat="45.755925" lon="11.3666217"><ele>604.5</ele><time>2026-04-15T14:37:37.085Z</time></trkpt><trkpt lat="45.7559167" lon="11.3667267"><ele>602.0</ele><time>2026-04-15T14:37:38.086Z</time></trkpt><trkpt lat="45.7559217" lon="11.3668717"><ele>599.5</ele><time>2026-04-15T14:37:40.086Z</time></trkpt><trkpt lat="45.7559483" lon="11.366955"><ele>597.0</ele><time>2026-04-15T14:37:43.086Z</time></trkpt><trkpt lat="45.7560233" lon="11.3670233"><ele>594.5</ele><time>2026-04-15T14:38:16.086Z</time></trkpt><trkpt lat="45.756075" lon="11.3670917"><ele>592.0</ele><time>2026-04-15T14:38:17.086Z</time></trkpt><trkpt lat="45.7561233" lon="11.3671717"><ele>596.2</ele><time>2026-04-15T14:38:18.085Z</time></trkpt><trkpt lat="45.75617" lon="11.3672633"><ele>600.4000000000001</ele><time>2026-04-15T14:38:19.085Z</time></trkpt><trkpt lat="45.7562067" lon="11.3673867"><ele>604.5999999999999</ele><time>2026-04-15T14:38:20.085Z</time></trkpt><trkpt lat="45.7562333" lon="11.3675317"><ele>608.8</ele><time>2026-04-15T14:38:21.086Z</time></trkpt><trkpt lat="45.7562517" lon="11.36769"><ele>613.0</ele><time>2026-04-15T14:38:22.086Z</time></trkpt><trkpt lat="45.7562667" lon="11.3678433"><ele>613.0</ele><time>2026-04-15T14:38:23.086Z</time></trkpt><trkpt lat="45.756285" lon="11.368005"><ele>613.0</ele><time>2026-04-15T14:38:24.085Z</time></trkpt><trkpt lat="45.756315" lon="11.36816"><ele>613.0</ele><time>2026-04-15T14:38:25.086Z</time></trkpt><trkpt lat="45.7563533" lon="11.368305"><ele>613.0</ele><time>2026-04-15T14:38:26.085Z</time></trkpt><trkpt lat="45.756415" lon="11.3684433"><ele>613.0</ele><time>2026-04-15T14:38:27.086Z</time></trkpt><trkpt lat="45.75647" lon="11.368585"><ele>610.0</ele><time>2026-04-15T14:38:28.086Z</time></trkpt><trkpt lat="45.75653" lon="11.368725"><ele>607.0</ele><time>2026-04-15T14:38:29.086Z</time></trkpt><trkpt lat="45.7565833" lon="11.3688633"><ele>604.0</ele><time>2026-04-15T14:38:30.085Z</time></trkpt><trkpt lat="45.7566317" lon="11.36901"><ele>601.0</ele><time>2026-04-15T14:38:31.086Z</time></trkpt><trkpt lat="45.756675" lon="11.3691667"><ele>599.0</ele><time>2026-04-15T14:38:32.085Z</time></trkpt><trkpt lat="45.7567083" lon="11.3693383"><ele>597.0</ele><time>2026-04-15T14:38:33.086Z</time></trkpt><trkpt lat="45.75673" lon="11.3695217"><ele>595.0</ele><time>2026-04-15T14:38:34.085Z</time></trkpt><trkpt lat="45.75673" lon="11.3697217"><ele>593.0</ele><time>2026-04-15T14:38:35.086Z</time></trkpt><trkpt lat="45.7567367" lon="11.3699233"><ele>590.6666666666666</ele><time>2026-04-15T14:38:36.086Z</time></trkpt><trkpt lat="45.756745" lon="11.3701483"><ele>588.3333333333334</ele><time>2026-04-15T14:38:37.085Z</time></trkpt><trkpt lat="45.756775" lon="11.370375"><ele>586.0</ele><time>2026-04-15T14:38:38.086Z</time></trkpt><trkpt lat="45.7567867" lon="11.37058"><ele>585.25</ele><time>2026-04-15T14:38:39.085Z</time></trkpt><trkpt lat="45.756755" lon="11.3707683"><ele>584.5</ele><time>2026-04-15T14:38:40.085Z</time></trkpt><trkpt lat="45.756715" lon="11.3709483"><ele>583.75</ele><time>2026-04-15T14:38:41.086Z</time></trkpt><trkpt lat="45.7566467" lon="11.3711133"><ele>583.0</ele><time>2026-04-15T14:38:42.085Z</time></trkpt><trkpt lat="45.756565" lon="11.3712433"><ele>583.0</ele><time>2026-04-15T14:38:43.086Z</time></trkpt><trkpt lat="45.7564867" lon="11.371345"><ele>583.0</ele><time>2026-04-15T14:38:44.086Z</time></trkpt><trkpt lat="45.756395" lon="11.371425"><ele>583.0</ele><time>2026-04-15T14:38:45.086Z</time></trkpt><trkpt lat="45.7563067" lon="11.37151"><ele>583.0</ele><time>2026-04-15T14:38:46.086Z</time></trkpt><trkpt lat="45.75621" lon="11.3716"><ele>583.0</ele><time>2026-04-15T14:38:47.086Z</time></trkpt><trkpt lat="45.7561317" lon="11.3717"><ele>585.25</ele><time>2026-04-15T14:38:48.086Z</time></trkpt><trkpt lat="45.7560567" lon="11.3718133"><ele>587.5</ele><time>2026-04-15T14:38:49.085Z</time></trkpt><trkpt lat="45.75597" lon="11.371955"><ele>589.75</ele><time>2026-04-15T14:38:50.085Z</time></trkpt><trkpt lat="45.7558983" lon="11.372115"><ele>592.0</ele><time>2026-04-15T14:38:51.086Z</time></trkpt><trkpt lat="45.75582" lon="11.372265"><ele>587.5</ele><time>2026-04-15T14:38:52.086Z</time></trkpt><trkpt lat="45.7557367" lon="11.3724333"><ele>583.0</ele><time>2026-04-15T14:38:53.085Z</time></trkpt><trkpt lat="45.7556717" lon="11.372615"><ele>578.5</ele><time>2026-04-15T14:38:54.085Z</time></trkpt><trkpt lat="45.7555867" lon="11.3727883"><ele>574.0</ele><time>2026-04-15T14:38:55.085Z</time></trkpt><trkpt lat="45.7555033" lon="11.3729667"><ele>575.5</ele><time>2026-04-15T14:38:56.085Z</time></trkpt><trkpt lat="45.7554383" lon="11.37312"><ele>577.0</ele><time>2026-04-15T14:38:57.086Z</time></trkpt><trkpt lat="45.75539" lon="11.3732817"><ele>578.5</ele><time>2026-04-15T14:38:58.085Z</time></trkpt><trkpt lat="45.75537" lon="11.3734567"><ele>580.0</ele><time>2026-04-15T14:38:59.085Z</time></trkpt><trkpt lat="45.7553533" lon="11.3736167"><ele>580.0</ele><time>2026-04-15T14:39:00.085Z</time></trkpt><trkpt lat="45.7553383" lon="11.373755"><ele>580.0</ele><time>2026-04-15T14:39:01.086Z</time></trkpt><trkpt lat="45.755315" lon="11.373885"><ele>580.0</ele><time>2026-04-15T14:39:02.085Z</time></trkpt><trkpt lat="45.75529" lon="11.3740117"><ele>580.0</ele><time>2026-04-15T14:39:03.085Z</time></trkpt><trkpt lat="45.7552533" lon="11.3741017"><ele>580.0</ele><time>2026-04-15T14:39:04.085Z</time></trkpt><trkpt lat="45.7551967" lon="11.3741567"><ele>580.0</ele><time>2026-04-15T14:39:05.085Z</time></trkpt><trkpt lat="45.7551233" lon="11.3741517"><ele>575.4</ele><time>2026-04-15T14:39:06.085Z</time></trkpt><trkpt lat="45.7550567" lon="11.3741317"><ele>570.8</ele><time>2026-04-15T14:39:07.086Z</time></trkpt><trkpt lat="45.7549917" lon="11.37404"><ele>566.2</ele><time>2026-04-15T14:39:08.085Z</time></trkpt><trkpt lat="45.7549233" lon="11.3739433"><ele>561.6</ele><time>2026-04-15T14:39:09.085Z</time></trkpt><trkpt lat="45.7548283" lon="11.3738417"><ele>557.0</ele><time>2026-04-15T14:39:10.085Z</time></trkpt><trkpt lat="45.7547267" lon="11.3737483"><ele>557.0</ele><time>2026-04-15T14:39:11.085Z</time></trkpt><trkpt lat="45.754655" lon="11.3736817"><ele>557.0</ele><time>2026-04-15T14:39:12.085Z</time></trkpt><trkpt lat="45.75459" lon="11.373645"><ele>557.0</ele><time>2026-04-15T14:39:13.085Z</time></trkpt><trkpt lat="45.7545233" lon="11.3736367"><ele>557.0</ele><time>2026-04-15T14:39:14.085Z</time></trkpt><trkpt lat="45.7544483" lon="11.373755"><ele>557.0</ele><time>2026-04-15T14:39:16.085Z</time></trkpt><trkpt lat="45.75442" lon="11.3738583"><ele>557.0</ele><time>2026-04-15T14:39:17.086Z</time></trkpt><trkpt lat="45.7544117" lon="11.3739967"><ele>557.0</ele><time>2026-04-15T14:39:18.086Z</time></trkpt><trkpt lat="45.754425" lon="11.3741383"><ele>557.0</ele><time>2026-04-15T14:39:19.086Z</time></trkpt><trkpt lat="45.7544367" lon="11.37427"><ele>557.0</ele><time>2026-04-15T14:39:20.086Z</time></trkpt><trkpt lat="45.7544233" lon="11.3744"><ele>557.0</ele><time>2026-04-15T14:39:21.086Z</time></trkpt><trkpt lat="45.7544017" lon="11.3745367"><ele>557.0</ele><time>2026-04-15T14:39:22.086Z</time></trkpt><trkpt lat="45.7543783" lon="11.3746967"><ele>552.0</ele><time>2026-04-15T14:39:23.086Z</time></trkpt><trkpt lat="45.7543517" lon="11.37487"><ele>547.0</ele><time>2026-04-15T14:39:24.086Z</time></trkpt><trkpt lat="45.7543017" lon="11.37505"><ele>542.0</ele><time>2026-04-15T14:39:25.086Z</time></trkpt><trkpt lat="45.7542483" lon="11.3752617"><ele>537.0</ele><time>2026-04-15T14:39:26.085Z</time></trkpt><trkpt lat="45.7541817" lon="11.375465"><ele>539.0</ele><time>2026-04-15T14:39:27.085Z</time></trkpt><trkpt lat="45.7540983" lon="11.375695"><ele>541.0</ele><time>2026-04-15T14:39:28.086Z</time></trkpt><trkpt lat="45.7540033" lon="11.3759067"><ele>543.0</ele><time>2026-04-15T14:39:29.085Z</time></trkpt><trkpt lat="45.75391" lon="11.3761017"><ele>543.0</ele><time>2026-04-15T14:39:30.086Z</time></trkpt><trkpt lat="45.75381" lon="11.37626"><ele>543.0</ele><time>2026-04-15T14:39:31.085Z</time></trkpt><trkpt lat="45.7536983" lon="11.37639"><ele>543.0</ele><time>2026-04-15T14:39:32.086Z</time></trkpt><trkpt lat="45.7535717" lon="11.376495"><ele>543.0</ele><time>2026-04-15T14:39:33.086Z</time></trkpt><trkpt lat="45.7534467" lon="11.3765717"><ele>541.25</ele><time>2026-04-15T14:39:34.086Z</time></trkpt><trkpt lat="45.7533283" lon="11.37662"><ele>539.5</ele><time>2026-04-15T14:39:35.086Z</time></trkpt><trkpt lat="45.7532" lon="11.3766133"><ele>537.75</ele><time>2026-04-15T14:39:36.085Z</time></trkpt><trkpt lat="45.75305" lon="11.3765533"><ele>536.0</ele><time>2026-04-15T14:39:37.086Z</time></trkpt><trkpt lat="45.7529083" lon="11.3764817"><ele>536.0</ele><time>2026-04-15T14:39:38.086Z</time></trkpt><trkpt lat="45.752775" lon="11.3764067"><ele>536.0</ele><time>2026-04-15T14:39:39.085Z</time></trkpt><trkpt lat="45.7526483" lon="11.3763567"><ele>536.0</ele><time>2026-04-15T14:39:40.086Z</time></trkpt><trkpt lat="45.7525283" lon="11.376355"><ele>536.0</ele><time>2026-04-15T14:39:41.085Z</time></trkpt><trkpt lat="45.7524217" lon="11.3763867"><ele>532.8</ele><time>2026-04-15T14:39:42.086Z</time></trkpt><trkpt lat="45.7523217" lon="11.37644"><ele>529.6</ele><time>2026-04-15T14:39:43.086Z</time></trkpt><trkpt lat="45.752235" lon="11.3764967"><ele>526.4</ele><time>2026-04-15T14:39:44.085Z</time></trkpt><trkpt lat="45.7521667" lon="11.37653"><ele>523.2</ele><time>2026-04-15T14:39:45.086Z</time></trkpt><trkpt lat="45.7520517" lon="11.3765467"><ele>520.0</ele><time>2026-04-15T14:39:47.085Z</time></trkpt><trkpt lat="45.7519967" lon="11.3764933"><ele>516.0</ele><time>2026-04-15T14:39:48.086Z</time></trkpt><trkpt lat="45.7519933" lon="11.3763433"><ele>512.0</ele><time>2026-04-15T14:39:50.085Z</time></trkpt><trkpt lat="45.752045" lon="11.3762717"><ele>508.0</ele><time>2026-04-15T14:39:51.085Z</time></trkpt><trkpt lat="45.7521183" lon="11.3761917"><ele>504.0</ele><time>2026-04-15T14:39:52.086Z</time></trkpt><trkpt lat="45.7522233" lon="11.3761167"><ele>500.0</ele><time>2026-04-15T14:39:53.085Z</time></trkpt><trkpt lat="45.7523817" lon="11.3760483"><ele>500.0</ele><time>2026-04-15T14:39:54.085Z</time></trkpt><trkpt lat="45.7525267" lon="11.375985"><ele>500.0</ele><time>2026-04-15T14:39:55.086Z</time></trkpt><trkpt lat="45.7526533" lon="11.375905"><ele>500.0</ele><time>2026-04-15T14:39:56.085Z</time></trkpt><trkpt lat="45.7527717" lon="11.37583"><ele>500.0</ele><time>2026-04-15T14:39:57.085Z</time></trkpt><trkpt lat="45.7528717" lon="11.3757383"><ele>501.5</ele><time>2026-04-15T14:39:58.086Z</time></trkpt><trkpt lat="45.75296" lon="11.3756317"><ele>503.0</ele><time>2026-04-15T14:39:59.085Z</time></trkpt><trkpt lat="45.75304" lon="11.3754667"><ele>504.5</ele><time>2026-04-15T14:40:00.086Z</time></trkpt><trkpt lat="45.7530967" lon="11.3752517"><ele>506.0</ele><time>2026-04-15T14:40:01.086Z</time></trkpt><trkpt lat="45.7531633" lon="11.3750117"><ele>506.0</ele><time>2026-04-15T14:40:02.086Z</time></trkpt><trkpt lat="45.753225" lon="11.3747817"><ele>506.0</ele><time>2026-04-15T14:40:03.086Z</time></trkpt><trkpt lat="45.75328" lon="11.374575"><ele>506.0</ele><time>2026-04-15T14:40:04.086Z</time></trkpt><trkpt lat="45.7533183" lon="11.3743917"><ele>504.0</ele><time>2026-04-15T14:40:05.085Z</time></trkpt><trkpt lat="45.75334" lon="11.3742167"><ele>502.0</ele><time>2026-04-15T14:40:06.085Z</time></trkpt><trkpt lat="45.7533483" lon="11.3740417"><ele>500.0</ele><time>2026-04-15T14:40:07.086Z</time></trkpt><trkpt lat="45.75333" lon="11.3738683"><ele>498.0</ele><time>2026-04-15T14:40:08.085Z</time></trkpt><trkpt lat="45.7532783" lon="11.3737017"><ele>498.0</ele><time>2026-04-15T14:40:09.085Z</time></trkpt><trkpt lat="45.7532217" lon="11.3735617"><ele>497.99999999999994</ele><time>2026-04-15T14:40:10.085Z</time></trkpt><trkpt lat="45.7531567" lon="11.3734333"><ele>497.99999999999994</ele><time>2026-04-15T14:40:11.086Z</time></trkpt><trkpt lat="45.7530717" lon="11.3733367"><ele>498.0</ele><time>2026-04-15T14:40:12.086Z</time></trkpt><trkpt lat="45.7529717" lon="11.373265"><ele>498.0</ele><time>2026-04-15T14:40:13.085Z</time></trkpt><trkpt lat="45.7528517" lon="11.3732583"><ele>498.0</ele><time>2026-04-15T14:40:14.085Z</time></trkpt><trkpt lat="45.7527567" lon="11.373245"><ele>497.99999999999994</ele><time>2026-04-15T14:40:15.085Z</time></trkpt><trkpt lat="45.75267" lon="11.3732117"><ele>497.99999999999994</ele><time>2026-04-15T14:40:16.086Z</time></trkpt><trkpt lat="45.7525983" lon="11.373135"><ele>498.0</ele><time>2026-04-15T14:40:17.085Z</time></trkpt><trkpt lat="45.7525467" lon="11.3730167"><ele>498.0</ele><time>2026-04-15T14:40:18.085Z</time></trkpt><trkpt lat="45.7525067" lon="11.3728467"><ele>493.5</ele><time>2026-04-15T14:40:19.086Z</time></trkpt><trkpt lat="45.7524817" lon="11.3726817"><ele>489.0</ele><time>2026-04-15T14:40:20.085Z</time></trkpt><trkpt lat="45.75246" lon="11.3724967"><ele>484.5</ele><time>2026-04-15T14:40:21.086Z</time></trkpt><trkpt lat="45.7524567" lon="11.3722417"><ele>480.0</ele><time>2026-04-15T14:40:22.085Z</time></trkpt><trkpt lat="45.7524517" lon="11.3720833"><ele>480.0</ele><time>2026-04-15T14:40:23.085Z</time></trkpt><trkpt lat="45.752435" lon="11.37194"><ele>480.0</ele><time>2026-04-15T14:40:24.085Z</time></trkpt><trkpt lat="45.7524133" lon="11.3718117"><ele>480.0</ele><time>2026-04-15T14:40:25.086Z</time></trkpt><trkpt lat="45.7523667" lon="11.3717"><ele>480.0</ele><time>2026-04-15T14:40:26.086Z</time></trkpt><trkpt lat="45.7522883" lon="11.371605"><ele>480.0</ele><time>2026-04-15T14:40:27.085Z</time></trkpt><trkpt lat="45.752195" lon="11.3715233"><ele>480.0</ele><time>2026-04-15T14:40:28.085Z</time></trkpt><trkpt lat="45.7520467" lon="11.3714483"><ele>480.0</ele><time>2026-04-15T14:40:29.086Z</time></trkpt><trkpt lat="45.751865" lon="11.3713683"><ele>480.0</ele><time>2026-04-15T14:40:30.086Z</time></trkpt><trkpt lat="45.7516583" lon="11.3712783"><ele>479.33333333333337</ele><time>2026-04-15T14:40:31.086Z</time></trkpt><trkpt lat="45.7514717" lon="11.371195"><ele>478.6666666666667</ele><time>2026-04-15T14:40:32.085Z</time></trkpt><trkpt lat="45.7512933" lon="11.3710983"><ele>478.0</ele><time>2026-04-15T14:40:33.086Z</time></trkpt><trkpt lat="45.75114" lon="11.3710117"><ele>476.0</ele><time>2026-04-15T14:40:34.086Z</time></trkpt><trkpt lat="45.7509983" lon="11.3709367"><ele>474.0</ele><time>2026-04-15T14:40:35.086Z</time></trkpt><trkpt lat="45.7508667" lon="11.3708667"><ele>472.0</ele><time>2026-04-15T14:40:36.086Z</time></trkpt><trkpt lat="45.7507383" lon="11.3708167"><ele>470.0</ele><time>2026-04-15T14:40:37.085Z</time></trkpt><trkpt lat="45.7505767" lon="11.3707733"><ele>470.0</ele><time>2026-04-15T14:40:38.085Z</time></trkpt><trkpt lat="45.7504017" lon="11.3707267"><ele>470.0</ele><time>2026-04-15T14:40:39.085Z</time></trkpt><trkpt lat="45.750215" lon="11.3706783"><ele>470.0</ele><time>2026-04-15T14:40:40.085Z</time></trkpt><trkpt lat="45.7500333" lon="11.3706383"><ele>468.0</ele><time>2026-04-15T14:40:41.085Z</time></trkpt><trkpt lat="45.74987" lon="11.3706083"><ele>466.0</ele><time>2026-04-15T14:40:42.086Z</time></trkpt><trkpt lat="45.74974" lon="11.3705933"><ele>464.0</ele><time>2026-04-15T14:40:43.085Z</time></trkpt><trkpt lat="45.74963" lon="11.3705717"><ele>462.0</ele><time>2026-04-15T14:40:44.085Z</time></trkpt><trkpt lat="45.7495233" lon="11.3705367"><ele>460.6</ele><time>2026-04-15T14:40:45.085Z</time></trkpt><trkpt lat="45.749435" lon="11.3704733"><ele>459.20000000000005</ele><time>2026-04-15T14:40:46.085Z</time></trkpt><trkpt lat="45.74936" lon="11.3703833"><ele>457.8</ele><time>2026-04-15T14:40:47.086Z</time></trkpt><trkpt lat="45.7493033" lon="11.3702517"><ele>456.4</ele><time>2026-04-15T14:40:48.085Z</time></trkpt><trkpt lat="45.74926" lon="11.370095"><ele>455.0</ele><time>2026-04-15T14:40:49.085Z</time></trkpt><trkpt lat="45.74924" lon="11.3698983"><ele>455.0</ele><time>2026-04-15T14:40:50.085Z</time></trkpt><trkpt lat="45.7492317" lon="11.3696667"><ele>455.0</ele><time>2026-04-15T14:40:51.086Z</time></trkpt><trkpt lat="45.7492217" lon="11.3694383"><ele>455.0</ele><time>2026-04-15T14:40:52.086Z</time></trkpt><trkpt lat="45.74919" lon="11.3692533"><ele>455.0</ele><time>2026-04-15T14:40:53.086Z</time></trkpt><trkpt lat="45.7491417" lon="11.3690667"><ele>455.0</ele><time>2026-04-15T14:40:54.086Z</time></trkpt><trkpt lat="45.7491083" lon="11.3689167"><ele>455.0</ele><time>2026-04-15T14:40:55.086Z</time></trkpt><trkpt lat="45.7490333" lon="11.368785"><ele>455.0</ele><time>2026-04-15T14:40:56.085Z</time></trkpt><trkpt lat="45.7489267" lon="11.3686767"><ele>455.6</ele><time>2026-04-15T14:40:57.086Z</time></trkpt><trkpt lat="45.7488217" lon="11.3686067"><ele>456.2</ele><time>2026-04-15T14:40:58.086Z</time></trkpt><trkpt lat="45.7487317" lon="11.3685483"><ele>456.79999999999995</ele><time>2026-04-15T14:40:59.085Z</time></trkpt><trkpt lat="45.748665" lon="11.3684983"><ele>457.4</ele><time>2026-04-15T14:41:00.085Z</time></trkpt><trkpt lat="45.74861" lon="11.3684367"><ele>458.0</ele><time>2026-04-15T14:41:01.085Z</time></trkpt><trkpt lat="45.7485717" lon="11.3682817"><ele>458.0</ele><time>2026-04-15T14:41:03.085Z</time></trkpt><trkpt lat="45.7486067" lon="11.3681817"><ele>457.99999999999994</ele><time>2026-04-15T14:41:04.085Z</time></trkpt><trkpt lat="45.7486883" lon="11.3680917"><ele>457.99999999999994</ele><time>2026-04-15T14:41:05.085Z</time></trkpt><trkpt lat="45.7488" lon="11.3680183"><ele>458.0</ele><time>2026-04-15T14:41:06.086Z</time></trkpt><trkpt lat="45.7489067" lon="11.3679267"><ele>458.0</ele><time>2026-04-15T14:41:07.085Z</time></trkpt><trkpt lat="45.7489967" lon="11.367815"><ele>457.3333333333333</ele><time>2026-04-15T14:41:08.086Z</time></trkpt><trkpt lat="45.7490583" lon="11.3677083"><ele>456.66666666666663</ele><time>2026-04-15T14:41:09.086Z</time></trkpt><trkpt lat="45.7491017" lon="11.3676"><ele>456.0</ele><time>2026-04-15T14:41:10.085Z</time></trkpt><trkpt lat="45.7491367" lon="11.3674917"><ele>455.33333333333337</ele><time>2026-04-15T14:41:11.086Z</time></trkpt><trkpt lat="45.7491533" lon="11.367395"><ele>454.6666666666667</ele><time>2026-04-15T14:41:12.085Z</time></trkpt><trkpt lat="45.7491" lon="11.3672617"><ele>454.0</ele><time>2026-04-15T14:41:14.085Z</time></trkpt><trkpt lat="45.7489283" lon="11.3672717"><ele>454.0</ele><time>2026-04-15T14:41:16.086Z</time></trkpt><trkpt lat="45.74878" lon="11.36729"><ele>454.0</ele><time>2026-04-15T14:41:17.086Z</time></trkpt><trkpt lat="45.74863" lon="11.3672783"><ele>454.0</ele><time>2026-04-15T14:41:18.085Z</time></trkpt><trkpt lat="45.7485083" lon="11.3672267"><ele>454.0</ele><time>2026-04-15T14:41:19.085Z</time></trkpt><trkpt lat="45.7484233" lon="11.367165"><ele>450.4</ele><time>2026-04-15T14:41:20.085Z</time></trkpt><trkpt lat="45.74837" lon="11.367075"><ele>446.79999999999995</ele><time>2026-04-15T14:41:21.085Z</time></trkpt><trkpt lat="45.748345" lon="11.3669817"><ele>443.20000000000005</ele><time>2026-04-15T14:41:22.085Z</time></trkpt><trkpt lat="45.7483467" lon="11.36685"><ele>439.6</ele><time>2026-04-15T14:41:23.086Z</time></trkpt><trkpt lat="45.748345" lon="11.366695"><ele>436.0</ele><time>2026-04-15T14:41:24.086Z</time></trkpt><trkpt lat="45.7483317" lon="11.3664983"><ele>435.75</ele><time>2026-04-15T14:41:25.086Z</time></trkpt><trkpt lat="45.7483167" lon="11.3662817"><ele>435.5</ele><time>2026-04-15T14:41:26.086Z</time></trkpt><trkpt lat="45.7483067" lon="11.3660783"><ele>435.25</ele><time>2026-04-15T14:41:27.085Z</time></trkpt><trkpt lat="45.7483233" lon="11.3658817"><ele>435.0</ele><time>2026-04-15T14:41:28.085Z</time></trkpt><trkpt lat="45.7483583" lon="11.3657067"><ele>435.0</ele><time>2026-04-15T14:41:29.086Z</time></trkpt><trkpt lat="45.748405" lon="11.3655533"><ele>435.0</ele><time>2026-04-15T14:41:30.085Z</time></trkpt><trkpt lat="45.74845" lon="11.3654217"><ele>435.0</ele><time>2026-04-15T14:41:31.086Z</time></trkpt><trkpt lat="45.7484867" lon="11.3653183"><ele>435.0</ele><time>2026-04-15T14:41:32.085Z</time></trkpt><trkpt lat="45.7485033" lon="11.36516"><ele>435.0</ele><time>2026-04-15T14:41:34.085Z</time></trkpt><trkpt lat="45.7484283" lon="11.3651267"><ele>435.0</ele><time>2026-04-15T14:41:37.086Z</time></trkpt><trkpt lat="45.7483467" lon="11.3652617"><ele>435.0</ele><time>2026-04-15T14:41:39.086Z</time></trkpt><trkpt lat="45.7482733" lon="11.36538"><ele>435.0</ele><time>2026-04-15T14:41:40.086Z</time></trkpt><trkpt lat="45.7482083" lon="11.365555"><ele>435.0</ele><time>2026-04-15T14:41:41.086Z</time></trkpt><trkpt lat="45.748125" lon="11.36587"><ele>435.0</ele><time>2026-04-15T14:41:42.086Z</time></trkpt><trkpt lat="45.7480467" lon="11.3662183"><ele>435.0</ele><time>2026-04-15T14:41:43.085Z</time></trkpt><trkpt lat="45.7479583" lon="11.3665117"><ele>435.25</ele><time>2026-04-15T14:41:44.085Z</time></trkpt><trkpt lat="45.74788" lon="11.3666983"><ele>435.5</ele><time>2026-04-15T14:41:45.086Z</time></trkpt><trkpt lat="45.7478033" lon="11.3668467"><ele>435.75</ele><time>2026-04-15T14:41:46.086Z</time></trkpt><trkpt lat="45.7476967" lon="11.3669833"><ele>436.0</ele><time>2026-04-15T14:41:47.086Z</time></trkpt><trkpt lat="45.7476017" lon="11.3671083"><ele>430.20000000000005</ele><time>2026-04-15T14:41:48.086Z</time></trkpt><trkpt lat="45.7475167" lon="11.36722"><ele>424.40000000000003</ele><time>2026-04-15T14:41:49.086Z</time></trkpt><trkpt lat="45.7474233" lon="11.367305"><ele>418.6</ele><time>2026-04-15T14:41:50.085Z</time></trkpt><trkpt lat="45.74734" lon="11.36736"><ele>412.8</ele><time>2026-04-15T14:41:51.085Z</time></trkpt><trkpt lat="45.74725" lon="11.3673633"><ele>407.0</ele><time>2026-04-15T14:41:52.086Z</time></trkpt><trkpt lat="45.74716" lon="11.3673317"><ele>406.99999999999994</ele><time>2026-04-15T14:41:53.085Z</time></trkpt><trkpt lat="45.7470683" lon="11.3672767"><ele>407.0</ele><time>2026-04-15T14:41:54.086Z</time></trkpt><trkpt lat="45.7469833" lon="11.367225"><ele>407.0</ele><time>2026-04-15T14:41:55.085Z</time></trkpt><trkpt lat="45.7469083" lon="11.3672017"><ele>407.0</ele><time>2026-04-15T14:41:56.085Z</time></trkpt><trkpt lat="45.746835" lon="11.367205"><ele>406.99999999999994</ele><time>2026-04-15T14:41:57.086Z</time></trkpt><trkpt lat="45.7467717" lon="11.367245"><ele>407.0</ele><time>2026-04-15T14:41:58.085Z</time></trkpt><trkpt lat="45.7467367" lon="11.367345"><ele>403.40000000000003</ele><time>2026-04-15T14:41:59.085Z</time></trkpt><trkpt lat="45.7467267" lon="11.3675117"><ele>399.8</ele><time>2026-04-15T14:42:00.086Z</time></trkpt><trkpt lat="45.7466833" lon="11.3676317"><ele>396.2</ele><time>2026-04-15T14:42:01.085Z</time></trkpt><trkpt lat="45.7466317" lon="11.3677333"><ele>392.6</ele><time>2026-04-15T14:42:02.085Z</time></trkpt><trkpt lat="45.7465583" lon="11.3677983"><ele>389.0</ele><time>2026-04-15T14:42:03.085Z</time></trkpt><trkpt lat="45.7464717" lon="11.36785"><ele>389.0</ele><time>2026-04-15T14:42:04.085Z</time></trkpt><trkpt lat="45.746385" lon="11.3679133"><ele>389.0</ele><time>2026-04-15T14:42:05.086Z</time></trkpt><trkpt lat="45.7462767" lon="11.368"><ele>389.0</ele><time>2026-04-15T14:42:06.085Z</time></trkpt><trkpt lat="45.7461483" lon="11.36809"><ele>389.0</ele><time>2026-04-15T14:42:07.085Z</time></trkpt><trkpt lat="45.7460083" lon="11.3681517"><ele>389.25</ele><time>2026-04-15T14:42:08.085Z</time></trkpt><trkpt lat="45.74588" lon="11.3681983"><ele>389.5</ele><time>2026-04-15T14:42:09.086Z</time></trkpt><trkpt lat="45.745745" lon="11.36817"><ele>389.75</ele><time>2026-04-15T14:42:10.085Z</time></trkpt><trkpt lat="45.7456317" lon="11.368145"><ele>390.0</ele><time>2026-04-15T14:42:11.086Z</time></trkpt><trkpt lat="45.7455267" lon="11.3681017"><ele>390.0</ele><time>2026-04-15T14:42:12.085Z</time></trkpt><trkpt lat="45.7454367" lon="11.3680933"><ele>390.0</ele><time>2026-04-15T14:42:13.086Z</time></trkpt><trkpt lat="45.74536" lon="11.3681167"><ele>390.0</ele><time>2026-04-15T14:42:14.086Z</time></trkpt><trkpt lat="45.7452983" lon="11.36818"><ele>390.0</ele><time>2026-04-15T14:42:15.086Z</time></trkpt><trkpt lat="45.7452667" lon="11.36828"><ele>390.0</ele><time>2026-04-15T14:42:16.085Z</time></trkpt><trkpt lat="45.7452467" lon="11.368385"><ele>390.0</ele><time>2026-04-15T14:42:17.085Z</time></trkpt><trkpt lat="45.7452583" lon="11.3685267"><ele>390.0</ele><time>2026-04-15T14:42:18.085Z</time></trkpt><trkpt lat="45.7452817" lon="11.3686817"><ele>390.0</ele><time>2026-04-15T14:42:19.085Z</time></trkpt><trkpt lat="45.7453467" lon="11.36887"><ele>390.0</ele><time>2026-04-15T14:42:20.085Z</time></trkpt><trkpt lat="45.7454583" lon="11.369075"><ele>390.0</ele><time>2026-04-15T14:42:21.086Z</time></trkpt><trkpt lat="45.7455783" lon="11.3692783"><ele>389.25</ele><time>2026-04-15T14:42:22.085Z</time></trkpt><trkpt lat="45.7456817" lon="11.36945"><ele>388.5</ele><time>2026-04-15T14:42:23.085Z</time></trkpt><trkpt lat="45.745745" lon="11.3695967"><ele>387.75</ele><time>2026-04-15T14:42:24.086Z</time></trkpt><trkpt lat="45.7458033" lon="11.3697167"><ele>387.0</ele><time>2026-04-15T14:42:25.085Z</time></trkpt><trkpt lat="45.7458567" lon="11.3698067"><ele>382.6</ele><time>2026-04-15T14:42:26.086Z</time></trkpt><trkpt lat="45.7458833" lon="11.3698983"><ele>378.20000000000005</ele><time>2026-04-15T14:42:27.086Z</time></trkpt><trkpt lat="45.745905" lon="11.37"><ele>373.8</ele><time>2026-04-15T14:42:28.086Z</time></trkpt><trkpt lat="45.7458583" lon="11.3700917"><ele>369.4</ele><time>2026-04-15T14:42:30.086Z</time></trkpt><trkpt lat="45.7457617" lon="11.3699333"><ele>365.0</ele><time>2026-04-15T14:42:32.085Z</time></trkpt><trkpt lat="45.7456933" lon="11.369775"><ele>372.33333333333337</ele><time>2026-04-15T14:42:33.086Z</time></trkpt><trkpt lat="45.7456117" lon="11.3695667"><ele>379.6666666666667</ele><time>2026-04-15T14:42:34.085Z</time></trkpt><trkpt lat="45.7455117" lon="11.3693867"><ele>387.0</ele><time>2026-04-15T14:42:35.086Z</time></trkpt><trkpt lat="45.7454083" lon="11.3692333"><ele>387.0</ele><time>2026-04-15T14:42:36.086Z</time></trkpt><trkpt lat="45.7452983" lon="11.369105"><ele>387.0</ele><time>2026-04-15T14:42:37.085Z</time></trkpt><trkpt lat="45.7452167" lon="11.3690067"><ele>387.0</ele><time>2026-04-15T14:42:38.086Z</time></trkpt><trkpt lat="45.7451283" lon="11.3688633"><ele>387.0</ele><time>2026-04-15T14:42:39.085Z</time></trkpt><trkpt lat="45.7450633" lon="11.36871"><ele>381.25</ele><time>2026-04-15T14:42:40.086Z</time></trkpt><trkpt lat="45.745005" lon="11.36855"><ele>375.5</ele><time>2026-04-15T14:42:41.085Z</time></trkpt><trkpt lat="45.7449417" lon="11.368415"><ele>369.75</ele><time>2026-04-15T14:42:42.086Z</time></trkpt><trkpt lat="45.7448533" lon="11.3683083"><ele>364.0</ele><time>2026-04-15T14:42:43.085Z</time></trkpt><trkpt lat="45.7447583" lon="11.3682617"><ele>364.0</ele><time>2026-04-15T14:42:44.086Z</time></trkpt><trkpt lat="45.7446633" lon="11.368255"><ele>364.0</ele><time>2026-04-15T14:42:45.085Z</time></trkpt><trkpt lat="45.7445617" lon="11.3682883"><ele>364.0</ele><time>2026-04-15T14:42:46.085Z</time></trkpt><trkpt lat="45.7444633" lon="11.3682883"><ele>364.0</ele><time>2026-04-15T14:42:47.086Z</time></trkpt><trkpt lat="45.7443883" lon="11.36825"><ele>364.0</ele><time>2026-04-15T14:42:48.085Z</time></trkpt><trkpt lat="45.744335" lon="11.3681617"><ele>360.4</ele><time>2026-04-15T14:42:49.085Z</time></trkpt><trkpt lat="45.7443033" lon="11.368055"><ele>356.79999999999995</ele><time>2026-04-15T14:42:50.086Z</time></trkpt><trkpt lat="45.7442883" lon="11.36795"><ele>353.20000000000005</ele><time>2026-04-15T14:42:51.085Z</time></trkpt><trkpt lat="45.74427" lon="11.3678467"><ele>349.6</ele><time>2026-04-15T14:42:52.085Z</time></trkpt><trkpt lat="45.7441767" lon="11.3678"><ele>346.0</ele><time>2026-04-15T14:42:54.086Z</time></trkpt><trkpt lat="45.7441" lon="11.367965"><ele>344.0</ele><time>2026-04-15T14:42:56.085Z</time></trkpt><trkpt lat="45.744095" lon="11.3681283"><ele>342.0</ele><time>2026-04-15T14:42:57.085Z</time></trkpt><trkpt lat="45.7441233" lon="11.3682817"><ele>340.0</ele><time>2026-04-15T14:42:58.085Z</time></trkpt><trkpt lat="45.7441783" lon="11.3684317"><ele>338.0</ele><time>2026-04-15T14:42:59.085Z</time></trkpt><trkpt lat="45.7442567" lon="11.368555"><ele>338.0</ele><time>2026-04-15T14:43:00.085Z</time></trkpt><trkpt lat="45.7443533" lon="11.368655"><ele>338.0</ele><time>2026-04-15T14:43:01.086Z</time></trkpt><trkpt lat="45.744495" lon="11.3687067"><ele>338.0</ele><time>2026-04-15T14:43:02.086Z</time></trkpt><trkpt lat="45.7446017" lon="11.3687583"><ele>338.0</ele><time>2026-04-15T14:43:03.085Z</time></trkpt><trkpt lat="45.7446883" lon="11.3688233"><ele>341.0</ele><time>2026-04-15T14:43:04.086Z</time></trkpt><trkpt lat="45.744745" lon="11.3689183"><ele>344.0</ele><time>2026-04-15T14:43:05.086Z</time></trkpt><trkpt lat="45.744775" lon="11.36905"><ele>347.0</ele><time>2026-04-15T14:43:06.086Z</time></trkpt><trkpt lat="45.7447917" lon="11.36919"><ele>350.0</ele><time>2026-04-15T14:43:07.086Z</time></trkpt><trkpt lat="45.7448167" lon="11.36933"><ele>353.0</ele><time>2026-04-15T14:43:08.086Z</time></trkpt><trkpt lat="45.744865" lon="11.3694817"><ele>353.0</ele><time>2026-04-15T14:43:09.085Z</time></trkpt><trkpt lat="45.74494" lon="11.3696633"><ele>353.0</ele><time>2026-04-15T14:43:10.085Z</time></trkpt><trkpt lat="45.7450083" lon="11.3698833"><ele>353.0</ele><time>2026-04-15T14:43:11.086Z</time></trkpt><trkpt lat="45.7450483" lon="11.37013"><ele>348.75</ele><time>2026-04-15T14:43:12.085Z</time></trkpt><trkpt lat="45.7450733" lon="11.3703467"><ele>344.5</ele><time>2026-04-15T14:43:13.085Z</time></trkpt><trkpt lat="45.7450717" lon="11.3705417"><ele>340.25</ele><time>2026-04-15T14:43:14.086Z</time></trkpt><trkpt lat="45.7450433" lon="11.3707117"><ele>336.0</ele><time>2026-04-15T14:43:15.086Z</time></trkpt><trkpt lat="45.7449933" lon="11.3708367"><ele>334.3333333333333</ele><time>2026-04-15T14:43:16.085Z</time></trkpt><trkpt lat="45.7449467" lon="11.3709233"><ele>332.6666666666667</ele><time>2026-04-15T14:43:17.085Z</time></trkpt><trkpt lat="45.744895" lon="11.3709867"><ele>331.0</ele><time>2026-04-15T14:43:18.085Z</time></trkpt><trkpt lat="45.7448317" lon="11.3710017"><ele>329.33333333333337</ele><time>2026-04-15T14:43:19.084Z</time></trkpt><trkpt lat="45.744745" lon="11.37091"><ele>327.6666666666667</ele><time>2026-04-15T14:43:21.084Z</time></trkpt><trkpt lat="45.7447383" lon="11.370785"><ele>326.0</ele><time>2026-04-15T14:43:22.085Z</time></trkpt><trkpt lat="45.7447483" lon="11.37065"><ele>328.5</ele><time>2026-04-15T14:43:23.084Z</time></trkpt><trkpt lat="45.74478" lon="11.3704667"><ele>331.0</ele><time>2026-04-15T14:43:24.085Z</time></trkpt><trkpt lat="45.7447783" lon="11.3702567"><ele>333.5</ele><time>2026-04-15T14:43:25.084Z</time></trkpt><trkpt lat="45.7447367" lon="11.3700267"><ele>336.0</ele><time>2026-04-15T14:43:26.085Z</time></trkpt><trkpt lat="45.744685" lon="11.3698133"><ele>331.6666666666667</ele><time>2026-04-15T14:43:27.084Z</time></trkpt><trkpt lat="45.7446217" lon="11.3696233"><ele>327.33333333333337</ele><time>2026-04-15T14:43:28.085Z</time></trkpt><trkpt lat="45.744515" lon="11.3694583"><ele>323.0</ele><time>2026-04-15T14:43:29.084Z</time></trkpt><trkpt lat="45.7443683" lon="11.3692983"><ele>323.0</ele><time>2026-04-15T14:43:30.085Z</time></trkpt><trkpt lat="45.7442133" lon="11.3691567"><ele>323.0</ele><time>2026-04-15T14:43:31.084Z</time></trkpt><trkpt lat="45.7440433" lon="11.369055"><ele>323.0</ele><time>2026-04-15T14:43:32.084Z</time></trkpt><trkpt lat="45.7439" lon="11.3689717"><ele>323.0</ele><time>2026-04-15T14:43:33.084Z</time></trkpt><trkpt lat="45.74379" lon="11.3688617"><ele>323.0</ele><time>2026-04-15T14:43:34.085Z</time></trkpt><trkpt lat="45.743695" lon="11.3687033"><ele>323.0</ele><time>2026-04-15T14:43:35.084Z</time></trkpt><trkpt lat="45.7436267" lon="11.368535"><ele>323.0</ele><time>2026-04-15T14:43:36.084Z</time></trkpt><trkpt lat="45.7435517" lon="11.3683867"><ele>317.6666666666667</ele><time>2026-04-15T14:43:37.084Z</time></trkpt><trkpt lat="45.7434383" lon="11.3682567"><ele>312.3333333333333</ele><time>2026-04-15T14:43:38.085Z</time></trkpt><trkpt lat="45.7432967" lon="11.3681333"><ele>307.0</ele><time>2026-04-15T14:43:39.085Z</time></trkpt><trkpt lat="45.743125" lon="11.3680267"><ele>304.0</ele><time>2026-04-15T14:43:40.085Z</time></trkpt><trkpt lat="45.7429667" lon="11.3678967"><ele>301.0</ele><time>2026-04-15T14:43:41.085Z</time></trkpt><trkpt lat="45.742815" lon="11.3677633"><ele>298.0</ele><time>2026-04-15T14:43:42.084Z</time></trkpt><trkpt lat="45.7426833" lon="11.36761"><ele>298.0</ele><time>2026-04-15T14:43:43.084Z</time></trkpt><trkpt lat="45.7425667" lon="11.3674583"><ele>298.0</ele><time>2026-04-15T14:43:44.085Z</time></trkpt><trkpt lat="45.742475" lon="11.3673133"><ele>298.0</ele><time>2026-04-15T14:43:45.085Z</time></trkpt><trkpt lat="45.742395" lon="11.367195"><ele>298.0</ele><time>2026-04-15T14:43:46.084Z</time></trkpt><trkpt lat="45.7423283" lon="11.367095"><ele>298.0</ele><time>2026-04-15T14:43:47.084Z</time></trkpt><trkpt lat="45.7422667" lon="11.3670117"><ele>298.0</ele><time>2026-04-15T14:43:48.084Z</time></trkpt><trkpt lat="45.7422017" lon="11.3669617"><ele>298.0</ele><time>2026-04-15T14:43:49.085Z</time></trkpt><trkpt lat="45.7421317" lon="11.36695"><ele>298.0</ele><time>2026-04-15T14:43:50.085Z</time></trkpt><trkpt lat="45.7420317" lon="11.3670833"><ele>298.0</ele><time>2026-04-15T14:43:52.085Z</time></trkpt><trkpt lat="45.74201" lon="11.3672333"><ele>298.0</ele><time>2026-04-15T14:43:53.085Z</time></trkpt><trkpt lat="45.742015" lon="11.367375"><ele>298.0</ele><time>2026-04-15T14:43:54.084Z</time></trkpt><trkpt lat="45.7420533" lon="11.3675067"><ele>298.0</ele><time>2026-04-15T14:43:55.084Z</time></trkpt><trkpt lat="45.7421067" lon="11.3676183"><ele>298.0</ele><time>2026-04-15T14:43:56.085Z</time></trkpt><trkpt lat="45.7421867" lon="11.3677217"><ele>298.0</ele><time>2026-04-15T14:43:57.084Z</time></trkpt><trkpt lat="45.7422967" lon="11.367825"><ele>298.0</ele><time>2026-04-15T14:43:58.085Z</time></trkpt><trkpt lat="45.742425" lon="11.36795"><ele>298.0</ele><time>2026-04-15T14:43:59.084Z</time></trkpt><trkpt lat="45.7425583" lon="11.3681067"><ele>298.0</ele><time>2026-04-15T14:44:00.084Z</time></trkpt><trkpt lat="45.7426767" lon="11.36829"><ele>297.5</ele><time>2026-04-15T14:44:01.084Z</time></trkpt><trkpt lat="45.7427717" lon="11.36846"><ele>297.0</ele><time>2026-04-15T14:44:02.085Z</time></trkpt><trkpt lat="45.7428433" lon="11.3686117"><ele>296.5</ele><time>2026-04-15T14:44:03.084Z</time></trkpt><trkpt lat="45.742885" lon="11.3687533"><ele>296.0</ele><time>2026-04-15T14:44:04.084Z</time></trkpt><trkpt lat="45.7429033" lon="11.3689"><ele>296.0</ele><time>2026-04-15T14:44:05.084Z</time></trkpt><trkpt lat="45.74294" lon="11.3690033"><ele>296.0</ele><time>2026-04-15T14:44:06.085Z</time></trkpt><trkpt lat="45.7429833" lon="11.36908"><ele>296.0</ele><time>2026-04-15T14:44:07.085Z</time></trkpt><trkpt lat="45.7430267" lon="11.3691483"><ele>296.0</ele><time>2026-04-15T14:44:08.085Z</time></trkpt><trkpt lat="45.7430367" lon="11.3692683"><ele>296.0</ele><time>2026-04-15T14:44:10.085Z</time></trkpt><trkpt lat="45.74294" lon="11.3692367"><ele>296.0</ele><time>2026-04-15T14:44:12.084Z</time></trkpt><trkpt lat="45.74286" lon="11.3691333"><ele>296.0</ele><time>2026-04-15T14:44:13.085Z</time></trkpt><trkpt lat="45.7427533" lon="11.3690067"><ele>296.0</ele><time>2026-04-15T14:44:14.085Z</time></trkpt><trkpt lat="45.742635" lon="11.3688967"><ele>296.0</ele><time>2026-04-15T14:44:15.085Z</time></trkpt><trkpt lat="45.7424983" lon="11.368795"><ele>296.0</ele><time>2026-04-15T14:44:16.084Z</time></trkpt><trkpt lat="45.7423617" lon="11.3686717"><ele>290.33333333333337</ele><time>2026-04-15T14:44:17.085Z</time></trkpt><trkpt lat="45.742215" lon="11.368525"><ele>284.6666666666667</ele><time>2026-04-15T14:44:18.084Z</time></trkpt><trkpt lat="45.7420683" lon="11.36837"><ele>279.0</ele><time>2026-04-15T14:44:19.084Z</time></trkpt><trkpt lat="45.7419333" lon="11.368215"><ele>276.0</ele><time>2026-04-15T14:44:20.084Z</time></trkpt><trkpt lat="45.7418183" lon="11.368075"><ele>273.0</ele><time>2026-04-15T14:44:21.085Z</time></trkpt><trkpt lat="45.7417183" lon="11.3679733"><ele>270.0</ele><time>2026-04-15T14:44:22.085Z</time></trkpt><trkpt lat="45.7416383" lon="11.3678817"><ele>267.0</ele><time>2026-04-15T14:44:23.084Z</time></trkpt><trkpt lat="45.7415817" lon="11.3678083"><ele>267.0</ele><time>2026-04-15T14:44:24.084Z</time></trkpt><trkpt lat="45.7414933" lon="11.3677333"><ele>267.0</ele><time>2026-04-15T14:44:26.084Z</time></trkpt><trkpt lat="45.7414183" lon="11.3678117"><ele>267.0</ele><time>2026-04-15T14:44:33.084Z</time></trkpt><trkpt lat="45.7414167" lon="11.3679883"><ele>267.0</ele><time>2026-04-15T14:44:35.084Z</time></trkpt><trkpt lat="45.74142" lon="11.3681017"><ele>267.0</ele><time>2026-04-15T14:44:36.084Z</time></trkpt><trkpt lat="45.7414117" lon="11.36823"><ele>266.0</ele><time>2026-04-15T14:44:37.085Z</time></trkpt><trkpt lat="45.7413833" lon="11.3683667"><ele>265.0</ele><time>2026-04-15T14:44:38.084Z</time></trkpt><trkpt lat="45.7413317" lon="11.368505"><ele>264.0</ele><time>2026-04-15T14:44:39.085Z</time></trkpt><trkpt lat="45.7412517" lon="11.3686417"><ele>263.0</ele><time>2026-04-15T14:44:40.085Z</time></trkpt><trkpt lat="45.7411383" lon="11.36877"><ele>261.6666666666667</ele><time>2026-04-15T14:44:41.085Z</time></trkpt><trkpt lat="45.7410217" lon="11.3689067"><ele>260.3333333333333</ele><time>2026-04-15T14:44:42.085Z</time></trkpt><trkpt lat="45.7408867" lon="11.3690367"><ele>259.0</ele><time>2026-04-15T14:44:43.084Z</time></trkpt><trkpt lat="45.74075" lon="11.3691783"><ele>259.0</ele><time>2026-04-15T14:44:44.085Z</time></trkpt><trkpt lat="45.74061" lon="11.36932"><ele>259.0</ele><time>2026-04-15T14:44:45.084Z</time></trkpt><trkpt lat="45.7404817" lon="11.3694683"><ele>259.0</ele><time>2026-04-15T14:44:46.084Z</time></trkpt><trkpt lat="45.7403417" lon="11.36958"><ele>259.0</ele><time>2026-04-15T14:44:47.085Z</time></trkpt><trkpt lat="45.7402167" lon="11.3696733"><ele>259.0</ele><time>2026-04-15T14:44:48.085Z</time></trkpt><trkpt lat="45.74008" lon="11.3697433"><ele>259.0</ele><time>2026-04-15T14:44:49.084Z</time></trkpt><trkpt lat="45.7399533" lon="11.369815"><ele>259.0</ele><time>2026-04-15T14:44:50.084Z</time></trkpt><trkpt lat="45.7398217" lon="11.36989"><ele>259.0</ele><time>2026-04-15T14:44:51.085Z</time></trkpt><trkpt lat="45.7396883" lon="11.3699733"><ele>259.0</ele><time>2026-04-15T14:44:52.085Z</time></trkpt><trkpt lat="45.7395567" lon="11.3700483"><ele>259.0</ele><time>2026-04-15T14:44:53.084Z</time></trkpt><trkpt lat="45.739405" lon="11.3701233"><ele>259.0</ele><time>2026-04-15T14:44:54.084Z</time></trkpt><trkpt lat="45.73926" lon="11.37019"><ele>256.3333333333333</ele><time>2026-04-15T14:44:55.084Z</time></trkpt><trkpt lat="45.739095" lon="11.37026"><ele>253.66666666666669</ele><time>2026-04-15T14:44:56.084Z</time></trkpt><trkpt lat="45.7389367" lon="11.3703333"><ele>251.0</ele><time>2026-04-15T14:44:57.085Z</time></trkpt><trkpt lat="45.73878" lon="11.3704083"><ele>251.0</ele><time>2026-04-15T14:44:58.085Z</time></trkpt><trkpt lat="45.73862" lon="11.37047"><ele>251.0</ele><time>2026-04-15T14:44:59.084Z</time></trkpt><trkpt lat="45.7384683" lon="11.3705417"><ele>251.0</ele><time>2026-04-15T14:45:00.085Z</time></trkpt><trkpt lat="45.7383133" lon="11.37061"><ele>249.5</ele><time>2026-04-15T14:45:01.084Z</time></trkpt><trkpt lat="45.7381717" lon="11.3706733"><ele>248.0</ele><time>2026-04-15T14:45:02.085Z</time></trkpt><trkpt lat="45.7380283" lon="11.3707267"><ele>246.5</ele><time>2026-04-15T14:45:03.084Z</time></trkpt><trkpt lat="45.737885" lon="11.37079"><ele>245.0</ele><time>2026-04-15T14:45:04.084Z</time></trkpt><trkpt lat="45.7377433" lon="11.37084"><ele>243.25</ele><time>2026-04-15T14:45:05.085Z</time></trkpt><trkpt lat="45.7375983" lon="11.3708867"><ele>241.5</ele><time>2026-04-15T14:45:06.084Z</time></trkpt><trkpt lat="45.7374633" lon="11.370925"><ele>239.75</ele><time>2026-04-15T14:45:07.084Z</time></trkpt><trkpt lat="45.7373133" lon="11.3709633"><ele>238.0</ele><time>2026-04-15T14:45:08.085Z</time></trkpt><trkpt lat="45.737165" lon="11.3709817"><ele>238.0</ele><time>2026-04-15T14:45:09.085Z</time></trkpt><trkpt lat="45.73702" lon="11.3709917"><ele>238.0</ele><time>2026-04-15T14:45:10.085Z</time></trkpt><trkpt lat="45.7368817" lon="11.3710033"><ele>238.0</ele><time>2026-04-15T14:45:11.084Z</time></trkpt><trkpt lat="45.7367367" lon="11.3710083"><ele>238.0</ele><time>2026-04-15T14:45:12.085Z</time></trkpt><trkpt lat="45.7366033" lon="11.37101"><ele>237.0</ele><time>2026-04-15T14:45:13.084Z</time></trkpt><trkpt lat="45.7364733" lon="11.3710267"><ele>236.0</ele><time>2026-04-15T14:45:14.084Z</time></trkpt><trkpt lat="45.736345" lon="11.3710367"><ele>235.0</ele><time>2026-04-15T14:45:15.084Z</time></trkpt><trkpt lat="45.7362217" lon="11.3710533"><ele>234.0</ele><time>2026-04-15T14:45:16.085Z</time></trkpt><trkpt lat="45.7360883" lon="11.371095"><ele>233.5</ele><time>2026-04-15T14:45:17.084Z</time></trkpt><trkpt lat="45.7359767" lon="11.3711717"><ele>233.0</ele><time>2026-04-15T14:45:18.084Z</time></trkpt><trkpt lat="45.735845" lon="11.3712767"><ele>232.5</ele><time>2026-04-15T14:45:19.085Z</time></trkpt><trkpt lat="45.7357083" lon="11.3713867"><ele>232.0</ele><time>2026-04-15T14:45:20.085Z</time></trkpt><trkpt lat="45.735575" lon="11.3715083"><ele>232.0</ele><time>2026-04-15T14:45:21.084Z</time></trkpt><trkpt lat="45.7354433" lon="11.3716267"><ele>232.0</ele><time>2026-04-15T14:45:22.085Z</time></trkpt><trkpt lat="45.7353083" lon="11.3717433"><ele>232.0</ele><time>2026-04-15T14:45:23.084Z</time></trkpt><trkpt lat="45.735165" lon="11.37186"><ele>231.66666666666666</ele><time>2026-04-15T14:45:24.085Z</time></trkpt><trkpt lat="45.7350183" lon="11.3719767"><ele>231.33333333333331</ele><time>2026-04-15T14:45:25.085Z</time></trkpt><trkpt lat="45.7348767" lon="11.3720983"><ele>231.0</ele><time>2026-04-15T14:45:26.084Z</time></trkpt><trkpt lat="45.7347383" lon="11.3722267"><ele>230.66666666666669</ele><time>2026-04-15T14:45:27.085Z</time></trkpt><trkpt lat="45.7345967" lon="11.37235"><ele>230.33333333333334</ele><time>2026-04-15T14:45:28.084Z</time></trkpt><trkpt lat="45.7344633" lon="11.3724767"><ele>230.0</ele><time>2026-04-15T14:45:29.085Z</time></trkpt><trkpt lat="45.7343333" lon="11.3725983"><ele>229.5</ele><time>2026-04-15T14:45:30.085Z</time></trkpt><trkpt lat="45.734205" lon="11.372715"><ele>229.0</ele><time>2026-04-15T14:45:31.084Z</time></trkpt><trkpt lat="45.7340883" lon="11.3728417"><ele>228.5</ele><time>2026-04-15T14:45:32.085Z</time></trkpt><trkpt lat="45.7339717" lon="11.372965"><ele>228.0</ele><time>2026-04-15T14:45:33.084Z</time></trkpt><trkpt lat="45.7338633" lon="11.37309"><ele>228.0</ele><time>2026-04-15T14:45:34.085Z</time></trkpt><trkpt lat="45.7337517" lon="11.3732033"><ele>228.0</ele><time>2026-04-15T14:45:35.084Z</time></trkpt><trkpt lat="45.7336483" lon="11.37331"><ele>228.0</ele><time>2026-04-15T14:45:36.084Z</time></trkpt><trkpt lat="45.7335467" lon="11.3734"><ele>228.0</ele><time>2026-04-15T14:45:37.084Z</time></trkpt><trkpt lat="45.7334533" lon="11.3734733"><ele>227.4</ele><time>2026-04-15T14:45:38.084Z</time></trkpt><trkpt lat="45.7333717" lon="11.3735283"><ele>226.8</ele><time>2026-04-15T14:45:39.084Z</time></trkpt><trkpt lat="45.7332883" lon="11.3735517"><ele>226.2</ele><time>2026-04-15T14:45:40.085Z</time></trkpt><trkpt lat="45.73319" lon="11.37355"><ele>225.6</ele><time>2026-04-15T14:45:41.085Z</time></trkpt><trkpt lat="45.733075" lon="11.3735367"><ele>225.0</ele><time>2026-04-15T14:45:42.085Z</time></trkpt><trkpt lat="45.7329433" lon="11.3734733"><ele>225.0</ele><time>2026-04-15T14:45:43.085Z</time></trkpt><trkpt lat="45.7328117" lon="11.3733917"><ele>225.0</ele><time>2026-04-15T14:45:44.085Z</time></trkpt><trkpt lat="45.7326733" lon="11.373315"><ele>225.0</ele><time>2026-04-15T14:45:45.084Z</time></trkpt><trkpt lat="45.732525" lon="11.37325"><ele>225.0</ele><time>2026-04-15T14:45:46.084Z</time></trkpt><trkpt lat="45.7323767" lon="11.3732133"><ele>224.0</ele><time>2026-04-15T14:45:47.085Z</time></trkpt><trkpt lat="45.7322033" lon="11.3731967"><ele>223.0</ele><time>2026-04-15T14:45:48.085Z</time></trkpt><trkpt lat="45.7320167" lon="11.3732083"><ele>222.0</ele><time>2026-04-15T14:45:49.085Z</time></trkpt><trkpt lat="45.7318233" lon="11.37321"><ele>221.33333333333331</ele><time>2026-04-15T14:45:50.084Z</time></trkpt><trkpt lat="45.73164" lon="11.3732233"><ele>220.66666666666666</ele><time>2026-04-15T14:45:51.084Z</time></trkpt><trkpt lat="45.7314583" lon="11.3732383"><ele>220.0</ele><time>2026-04-15T14:45:52.084Z</time></trkpt><trkpt lat="45.7312833" lon="11.3732483"><ele>220.0</ele><time>2026-04-15T14:45:53.084Z</time></trkpt><trkpt lat="45.7311217" lon="11.3732667"><ele>220.0</ele><time>2026-04-15T14:45:54.085Z</time></trkpt><trkpt lat="45.7309633" lon="11.3732883"><ele>220.0</ele><time>2026-04-15T14:45:55.084Z</time></trkpt><trkpt lat="45.7308017" lon="11.37331"><ele>219.25</ele><time>2026-04-15T14:45:56.084Z</time></trkpt><trkpt lat="45.73065" lon="11.3733283"><ele>218.5</ele><time>2026-04-15T14:45:57.085Z</time></trkpt><trkpt lat="45.7305033" lon="11.37334"><ele>217.75</ele><time>2026-04-15T14:45:58.085Z</time></trkpt><trkpt lat="45.7303567" lon="11.373355"><ele>217.0</ele><time>2026-04-15T14:45:59.085Z</time></trkpt><trkpt lat="45.7302117" lon="11.3733617"><ele>216.5</ele><time>2026-04-15T14:46:00.084Z</time></trkpt><trkpt lat="45.7300683" lon="11.3733733"><ele>216.0</ele><time>2026-04-15T14:46:01.084Z</time></trkpt><trkpt lat="45.7299267" lon="11.373385"><ele>215.5</ele><time>2026-04-15T14:46:02.084Z</time></trkpt><trkpt lat="45.7298" lon="11.37341"><ele>215.0</ele><time>2026-04-15T14:46:03.084Z</time></trkpt><trkpt lat="45.7296783" lon="11.3734183"><ele>215.0</ele><time>2026-04-15T14:46:04.085Z</time></trkpt><trkpt lat="45.729555" lon="11.37343"><ele>215.0</ele><time>2026-04-15T14:46:05.084Z</time></trkpt><trkpt lat="45.7294333" lon="11.3734433"><ele>215.0</ele><time>2026-04-15T14:46:06.084Z</time></trkpt><trkpt lat="45.7293417" lon="11.3734533"><ele>215.0</ele><time>2026-04-15T14:46:07.084Z</time></trkpt><trkpt lat="45.72926" lon="11.3734633"><ele>215.0</ele><time>2026-04-15T14:46:08.085Z</time></trkpt><trkpt lat="45.7291883" lon="11.3734733"><ele>214.83333333333334</ele><time>2026-04-15T14:46:09.084Z</time></trkpt><trkpt lat="45.7291067" lon="11.373495"><ele>214.66666666666669</ele><time>2026-04-15T14:46:11.084Z</time></trkpt><trkpt lat="45.7290383" lon="11.3735283"><ele>214.5</ele><time>2026-04-15T14:47:34.084Z</time></trkpt><trkpt lat="45.728985" lon="11.3736233"><ele>214.33333333333331</ele><time>2026-04-15T14:47:36.084Z</time></trkpt><trkpt lat="45.7289633" lon="11.3737083"><ele>214.16666666666666</ele><time>2026-04-15T14:47:37.085Z</time></trkpt><trkpt lat="45.7289617" lon="11.3738033"><ele>214.0</ele><time>2026-04-15T14:47:38.084Z</time></trkpt><trkpt lat="45.7289767" lon="11.373935"><ele>214.0</ele><time>2026-04-15T14:47:39.084Z</time></trkpt><trkpt lat="45.7290083" lon="11.3740783"><ele>214.0</ele><time>2026-04-15T14:47:40.084Z</time></trkpt><trkpt lat="45.7290583" lon="11.37423"><ele>214.0</ele><time>2026-04-15T14:47:41.084Z</time></trkpt><trkpt lat="45.7291083" lon="11.3743983"><ele>214.0</ele><time>2026-04-15T14:47:42.085Z</time></trkpt><trkpt lat="45.729155" lon="11.3745817"><ele>213.66666666666666</ele><time>2026-04-15T14:47:43.084Z</time></trkpt><trkpt lat="45.7292033" lon="11.3747767"><ele>213.33333333333331</ele><time>2026-04-15T14:47:44.084Z</time></trkpt><trkpt lat="45.7292617" lon="11.3749883"><ele>213.0</ele><time>2026-04-15T14:47:45.084Z</time></trkpt><trkpt lat="45.729325" lon="11.3752"><ele>213.0</ele><time>2026-04-15T14:47:46.084Z</time></trkpt><trkpt lat="45.729385" lon="11.3754117"><ele>213.0</ele><time>2026-04-15T14:47:47.085Z</time></trkpt><trkpt lat="45.729445" lon="11.3756183"><ele>213.0</ele><time>2026-04-15T14:47:48.084Z</time></trkpt><trkpt lat="45.7295067" lon="11.3758283"><ele>213.0</ele><time>2026-04-15T14:47:49.084Z</time></trkpt><trkpt lat="45.7295617" lon="11.3760383"><ele>213.0</ele><time>2026-04-15T14:47:50.085Z</time></trkpt><trkpt lat="45.7296083" lon="11.3762417"><ele>213.0</ele><time>2026-04-15T14:47:51.085Z</time></trkpt><trkpt lat="45.72966" lon="11.3764567"><ele>212.66666666666669</ele><time>2026-04-15T14:47:52.085Z</time></trkpt><trkpt lat="45.7297083" lon="11.3766617"><ele>212.33333333333334</ele><time>2026-04-15T14:47:53.085Z</time></trkpt><trkpt lat="45.7297633" lon="11.3768717"><ele>212.0</ele><time>2026-04-15T14:47:54.084Z</time></trkpt><trkpt lat="45.72982" lon="11.3770833"><ele>211.66666666666669</ele><time>2026-04-15T14:47:55.084Z</time></trkpt><trkpt lat="45.7298717" lon="11.3772883"><ele>211.33333333333331</ele><time>2026-04-15T14:47:56.084Z</time></trkpt><trkpt lat="45.7299267" lon="11.3775"><ele>211.0</ele><time>2026-04-15T14:47:57.084Z</time></trkpt><trkpt lat="45.72998" lon="11.3777233"><ele>211.0</ele><time>2026-04-15T14:47:58.085Z</time></trkpt><trkpt lat="45.730035" lon="11.3779467"><ele>211.0</ele><time>2026-04-15T14:47:59.084Z</time></trkpt><trkpt lat="45.7300967" lon="11.378175"><ele>211.0</ele><time>2026-04-15T14:48:00.084Z</time></trkpt><trkpt lat="45.73015" lon="11.3783967"><ele>211.0</ele><time>2026-04-15T14:48:01.084Z</time></trkpt><trkpt lat="45.73021" lon="11.378625"><ele>211.0</ele><time>2026-04-15T14:48:02.085Z</time></trkpt><trkpt lat="45.7302717" lon="11.3788533"><ele>211.0</ele><time>2026-04-15T14:48:03.085Z</time></trkpt><trkpt lat="45.730335" lon="11.37909"><ele>211.0</ele><time>2026-04-15T14:48:04.084Z</time></trkpt><trkpt lat="45.7303917" lon="11.3793233"><ele>211.0</ele><time>2026-04-15T14:48:05.085Z</time></trkpt><trkpt lat="45.7304383" lon="11.37956"><ele>211.0</ele><time>2026-04-15T14:48:06.085Z</time></trkpt><trkpt lat="45.7304967" lon="11.37979"><ele>210.66666666666666</ele><time>2026-04-15T14:48:07.084Z</time></trkpt><trkpt lat="45.730555" lon="11.3800183"><ele>210.33333333333331</ele><time>2026-04-15T14:48:08.084Z</time></trkpt><trkpt lat="45.7306133" lon="11.3802467"><ele>210.0</ele><time>2026-04-15T14:48:09.085Z</time></trkpt><trkpt lat="45.7306783" lon="11.3804833"><ele>210.33333333333331</ele><time>2026-04-15T14:48:10.085Z</time></trkpt><trkpt lat="45.73074" lon="11.3807183"><ele>210.66666666666666</ele><time>2026-04-15T14:48:11.084Z</time></trkpt><trkpt lat="45.7308" lon="11.3809567"><ele>211.0</ele><time>2026-04-15T14:48:12.085Z</time></trkpt><trkpt lat="45.730855" lon="11.3812"><ele>210.66666666666666</ele><time>2026-04-15T14:48:13.085Z</time></trkpt><trkpt lat="45.73092" lon="11.3814467"><ele>210.33333333333331</ele><time>2026-04-15T14:48:14.084Z</time></trkpt><trkpt lat="45.730995" lon="11.38169"><ele>210.0</ele><time>2026-04-15T14:48:15.084Z</time></trkpt><trkpt lat="45.7310583" lon="11.3819317"><ele>209.66666666666669</ele><time>2026-04-15T14:48:16.084Z</time></trkpt><trkpt lat="45.7311267" lon="11.3821833"><ele>209.33333333333334</ele><time>2026-04-15T14:48:17.085Z</time></trkpt><trkpt lat="45.73119" lon="11.3824317"><ele>209.0</ele><time>2026-04-15T14:48:18.085Z</time></trkpt><trkpt lat="45.7312533" lon="11.382685"><ele>209.0</ele><time>2026-04-15T14:48:19.084Z</time></trkpt><trkpt lat="45.7313217" lon="11.38292"><ele>209.0</ele><time>2026-04-15T14:48:20.084Z</time></trkpt><trkpt lat="45.7313783" lon="11.3831417"><ele>209.0</ele><time>2026-04-15T14:48:21.084Z</time></trkpt><trkpt lat="45.731435" lon="11.38335"><ele>208.79999999999998</ele><time>2026-04-15T14:48:22.085Z</time></trkpt><trkpt lat="45.73148" lon="11.3835283"><ele>208.6</ele><time>2026-04-15T14:48:23.085Z</time></trkpt><trkpt lat="45.7315167" lon="11.38368"><ele>208.4</ele><time>2026-04-15T14:48:24.085Z</time></trkpt><trkpt lat="45.7315567" lon="11.38381"><ele>208.2</ele><time>2026-04-15T14:48:25.085Z</time></trkpt><trkpt lat="45.7315867" lon="11.38392"><ele>208.0</ele><time>2026-04-15T14:48:26.085Z</time></trkpt><trkpt lat="45.7316067" lon="11.38401"><ele>207.99999999999997</ele><time>2026-04-15T14:48:27.085Z</time></trkpt><trkpt lat="45.7316533" lon="11.3841683"><ele>208.0</ele><time>2026-04-15T14:48:29.085Z</time></trkpt><trkpt lat="45.7316817" lon="11.3842567"><ele>208.0</ele><time>2026-04-15T14:48:30.084Z</time></trkpt><trkpt lat="45.73171" lon="11.3843517"><ele>208.0</ele><time>2026-04-15T14:48:31.084Z</time></trkpt><trkpt lat="45.731745" lon="11.38446"><ele>207.99999999999997</ele><time>2026-04-15T14:48:32.085Z</time></trkpt><trkpt lat="45.731785" lon="11.3845733"><ele>208.0</ele><time>2026-04-15T14:48:33.085Z</time></trkpt><trkpt lat="45.73182" lon="11.3846983"><ele>207.8</ele><time>2026-04-15T14:48:34.084Z</time></trkpt><trkpt lat="45.731855" lon="11.3848217"><ele>207.60000000000002</ele><time>2026-04-15T14:48:35.084Z</time></trkpt><trkpt lat="45.7318917" lon="11.3849467"><ele>207.39999999999998</ele><time>2026-04-15T14:48:36.084Z</time></trkpt><trkpt lat="45.7319233" lon="11.3850767"><ele>207.2</ele><time>2026-04-15T14:48:37.085Z</time></trkpt><trkpt lat="45.7319567" lon="11.3852117"><ele>207.0</ele><time>2026-04-15T14:48:38.084Z</time></trkpt><trkpt lat="45.73199" lon="11.3853467"><ele>207.0</ele><time>2026-04-15T14:48:39.085Z</time></trkpt><trkpt lat="45.73202" lon="11.3854733"><ele>207.0</ele><time>2026-04-15T14:48:40.085Z</time></trkpt><trkpt lat="45.7320517" lon="11.385585"><ele>207.0</ele><time>2026-04-15T14:48:41.085Z</time></trkpt><trkpt lat="45.7320717" lon="11.3856867"><ele>207.0</ele><time>2026-04-15T14:48:42.085Z</time></trkpt><trkpt lat="45.7320967" lon="11.3857783"><ele>207.0</ele><time>2026-04-15T14:48:43.085Z</time></trkpt><trkpt lat="45.7321233" lon="11.38587"><ele>207.0</ele><time>2026-04-15T14:48:44.084Z</time></trkpt><trkpt lat="45.7321633" lon="11.38603"><ele>207.0</ele><time>2026-04-15T14:48:46.084Z</time></trkpt><trkpt lat="45.732195" lon="11.3861267"><ele>207.0</ele><time>2026-04-15T14:48:47.085Z</time></trkpt><trkpt lat="45.73222" lon="11.3862367"><ele>207.0</ele><time>2026-04-15T14:48:48.085Z</time></trkpt><trkpt lat="45.7322467" lon="11.3863567"><ele>207.0</ele><time>2026-04-15T14:48:49.084Z</time></trkpt><trkpt lat="45.7322783" lon="11.3864917"><ele>207.0</ele><time>2026-04-15T14:48:50.085Z</time></trkpt><trkpt lat="45.7322967" lon="11.38662"><ele>207.0</ele><time>2026-04-15T14:48:51.085Z</time></trkpt><trkpt lat="45.7323267" lon="11.3867617"><ele>206.8</ele><time>2026-04-15T14:48:52.085Z</time></trkpt><trkpt lat="45.732355" lon="11.3869067"><ele>206.6</ele><time>2026-04-15T14:48:53.085Z</time></trkpt><trkpt lat="45.7323883" lon="11.387055"><ele>206.4</ele><time>2026-04-15T14:48:54.085Z</time></trkpt><trkpt lat="45.7324217" lon="11.3872033"><ele>206.20000000000002</ele><time>2026-04-15T14:48:55.084Z</time></trkpt><trkpt lat="45.7324633" lon="11.3873617"><ele>206.0</ele><time>2026-04-15T14:48:56.085Z</time></trkpt><trkpt lat="45.7324983" lon="11.3875333"><ele>205.25</ele><time>2026-04-15T14:48:57.085Z</time></trkpt><trkpt lat="45.7325433" lon="11.38771"><ele>204.5</ele><time>2026-04-15T14:48:58.084Z</time></trkpt><trkpt lat="45.7325917" lon="11.3878817"><ele>203.75</ele><time>2026-04-15T14:48:59.084Z</time></trkpt><trkpt lat="45.7326333" lon="11.38806"><ele>203.0</ele><time>2026-04-15T14:49:00.085Z</time></trkpt><trkpt lat="45.7326767" lon="11.3882217"><ele>203.25</ele><time>2026-04-15T14:49:01.084Z</time></trkpt><trkpt lat="45.7327233" lon="11.3883983"><ele>203.5</ele><time>2026-04-15T14:49:02.084Z</time></trkpt><trkpt lat="45.7327717" lon="11.388565"><ele>203.75</ele><time>2026-04-15T14:49:03.085Z</time></trkpt><trkpt lat="45.732815" lon="11.3887383"><ele>204.0</ele><time>2026-04-15T14:49:04.085Z</time></trkpt><trkpt lat="45.7328617" lon="11.38891"><ele>204.0</ele><time>2026-04-15T14:49:05.084Z</time></trkpt><trkpt lat="45.7329067" lon="11.3890833"><ele>204.0</ele><time>2026-04-15T14:49:06.084Z</time></trkpt><trkpt lat="45.7329517" lon="11.3892583"><ele>204.0</ele><time>2026-04-15T14:49:07.085Z</time></trkpt><trkpt lat="45.7329983" lon="11.38945"><ele>204.0</ele><time>2026-04-15T14:49:08.085Z</time></trkpt><trkpt lat="45.7330567" lon="11.3896467"><ele>204.66666666666669</ele><time>2026-04-15T14:49:09.085Z</time></trkpt><trkpt lat="45.73312" lon="11.3898617"><ele>205.33333333333334</ele><time>2026-04-15T14:49:10.084Z</time></trkpt><trkpt lat="45.7331817" lon="11.3901033"><ele>206.0</ele><time>2026-04-15T14:49:11.085Z</time></trkpt><trkpt lat="45.7332417" lon="11.3903483"><ele>204.66666666666669</ele><time>2026-04-15T14:49:12.084Z</time></trkpt><trkpt lat="45.73331" lon="11.3905967"><ele>203.33333333333331</ele><time>2026-04-15T14:49:13.084Z</time></trkpt><trkpt lat="45.7333767" lon="11.3908633"><ele>202.0</ele><time>2026-04-15T14:49:14.084Z</time></trkpt><trkpt lat="45.7334517" lon="11.3911317"><ele>200.0</ele><time>2026-04-15T14:49:15.084Z</time></trkpt><trkpt lat="45.7335317" lon="11.3914367"><ele>198.0</ele><time>2026-04-15T14:49:16.085Z</time></trkpt><trkpt lat="45.7336117" lon="11.3917467"><ele>201.33333333333331</ele><time>2026-04-15T14:49:17.085Z</time></trkpt><trkpt lat="45.7336833" lon="11.39203"><ele>204.66666666666666</ele><time>2026-04-15T14:49:18.084Z</time></trkpt><trkpt lat="45.7337417" lon="11.392305"><ele>208.0</ele><time>2026-04-15T14:49:19.084Z</time></trkpt><trkpt lat="45.7337967" lon="11.3925567"><ele>208.0</ele><time>2026-04-15T14:49:20.084Z</time></trkpt><trkpt lat="45.7338567" lon="11.392805"><ele>208.0</ele><time>2026-04-15T14:49:21.085Z</time></trkpt><trkpt lat="45.7339133" lon="11.393045"><ele>208.0</ele><time>2026-04-15T14:49:22.084Z</time></trkpt><trkpt lat="45.73397" lon="11.3932783"><ele>205.66666666666666</ele><time>2026-04-15T14:49:23.084Z</time></trkpt><trkpt lat="45.7340217" lon="11.3934983"><ele>203.33333333333331</ele><time>2026-04-15T14:49:24.085Z</time></trkpt><trkpt lat="45.734075" lon="11.3937133"><ele>201.0</ele><time>2026-04-15T14:49:25.085Z</time></trkpt><trkpt lat="45.7341317" lon="11.393925"><ele>200.25</ele><time>2026-04-15T14:49:26.085Z</time></trkpt><trkpt lat="45.7341817" lon="11.394125"><ele>199.5</ele><time>2026-04-15T14:49:27.084Z</time></trkpt><trkpt lat="45.7342333" lon="11.3943067"><ele>198.75</ele><time>2026-04-15T14:49:28.085Z</time></trkpt><trkpt lat="45.7342883" lon="11.3944917"><ele>198.0</ele><time>2026-04-15T14:49:29.084Z</time></trkpt><trkpt lat="45.7343417" lon="11.394685"><ele>196.33333333333331</ele><time>2026-04-15T14:49:30.085Z</time></trkpt><trkpt lat="45.7343933" lon="11.3949"><ele>194.66666666666666</ele><time>2026-04-15T14:49:31.084Z</time></trkpt><trkpt lat="45.73446" lon="11.3951383"><ele>193.0</ele><time>2026-04-15T14:49:32.084Z</time></trkpt><trkpt lat="45.7345267" lon="11.3953883"><ele>193.33333333333331</ele><time>2026-04-15T14:49:33.085Z</time></trkpt><trkpt lat="45.7345983" lon="11.395645"><ele>193.66666666666669</ele><time>2026-04-15T14:49:34.084Z</time></trkpt><trkpt lat="45.73466" lon="11.3959083"><ele>194.0</ele><time>2026-04-15T14:49:35.085Z</time></trkpt><trkpt lat="45.734715" lon="11.396185"><ele>193.66666666666669</ele><time>2026-04-15T14:49:36.084Z</time></trkpt><trkpt lat="45.73479" lon="11.39647"><ele>193.33333333333331</ele><time>2026-04-15T14:49:37.085Z</time></trkpt><trkpt lat="45.7348617" lon="11.3967433"><ele>193.0</ele><time>2026-04-15T14:49:38.084Z</time></trkpt><trkpt lat="45.7349317" lon="11.3970033"><ele>192.66666666666666</ele><time>2026-04-15T14:49:39.085Z</time></trkpt><trkpt lat="45.7349967" lon="11.3972533"><ele>192.33333333333331</ele><time>2026-04-15T14:49:40.085Z</time></trkpt><trkpt lat="45.7350633" lon="11.3974783"><ele>192.0</ele><time>2026-04-15T14:49:41.084Z</time></trkpt><trkpt lat="45.7351233" lon="11.3977083"><ele>192.0</ele><time>2026-04-15T14:49:42.084Z</time></trkpt><trkpt lat="45.735175" lon="11.3979517"><ele>192.0</ele><time>2026-04-15T14:49:43.084Z</time></trkpt><trkpt lat="45.7352333" lon="11.39819"><ele>192.0</ele><time>2026-04-15T14:49:44.085Z</time></trkpt><trkpt lat="45.7352983" lon="11.39843"><ele>193.33333333333331</ele><time>2026-04-15T14:49:45.084Z</time></trkpt><trkpt lat="45.73536" lon="11.3986733"><ele>194.66666666666666</ele><time>2026-04-15T14:49:46.085Z</time></trkpt><trkpt lat="45.7354233" lon="11.3989333"><ele>196.0</ele><time>2026-04-15T14:49:47.085Z</time></trkpt><trkpt lat="45.7354967" lon="11.39921"><ele>196.0</ele><time>2026-04-15T14:49:48.085Z</time></trkpt><trkpt lat="45.7355733" lon="11.39949"><ele>196.0</ele><time>2026-04-15T14:49:49.085Z</time></trkpt><trkpt lat="45.7356433" lon="11.3997667"><ele>196.0</ele><time>2026-04-15T14:49:50.084Z</time></trkpt><trkpt lat="45.7357117" lon="11.4000133"><ele>195.33333333333331</ele><time>2026-04-15T14:49:51.084Z</time></trkpt><trkpt lat="45.7357767" lon="11.4002583"><ele>194.66666666666669</ele><time>2026-04-15T14:49:52.084Z</time></trkpt><trkpt lat="45.7358433" lon="11.400505"><ele>194.0</ele><time>2026-04-15T14:49:53.085Z</time></trkpt><trkpt lat="45.7359" lon="11.4007533"><ele>193.66666666666669</ele><time>2026-04-15T14:49:54.085Z</time></trkpt><trkpt lat="45.7359683" lon="11.401005"><ele>193.33333333333331</ele><time>2026-04-15T14:49:55.085Z</time></trkpt><trkpt lat="45.736035" lon="11.4012467"><ele>193.0</ele><time>2026-04-15T14:49:56.084Z</time></trkpt><trkpt lat="45.7361" lon="11.40149"><ele>193.0</ele><time>2026-04-15T14:49:57.084Z</time></trkpt><trkpt lat="45.7361583" lon="11.4017183"><ele>193.0</ele><time>2026-04-15T14:49:58.084Z</time></trkpt><trkpt lat="45.73622" lon="11.4019317"><ele>193.0</ele><time>2026-04-15T14:49:59.084Z</time></trkpt><trkpt lat="45.736285" lon="11.4021417"><ele>192.5</ele><time>2026-04-15T14:50:00.084Z</time></trkpt><trkpt lat="45.7363367" lon="11.40234"><ele>192.0</ele><time>2026-04-15T14:50:01.084Z</time></trkpt><trkpt lat="45.7363817" lon="11.40252"><ele>191.5</ele><time>2026-04-15T14:50:02.085Z</time></trkpt><trkpt lat="45.7364317" lon="11.402685"><ele>191.0</ele><time>2026-04-15T14:50:03.085Z</time></trkpt><trkpt lat="45.73646" lon="11.4028417"><ele>191.0</ele><time>2026-04-15T14:50:04.085Z</time></trkpt><trkpt lat="45.7364733" lon="11.4029917"><ele>191.0</ele><time>2026-04-15T14:50:05.085Z</time></trkpt><trkpt lat="45.73647" lon="11.4031317"><ele>191.0</ele><time>2026-04-15T14:50:06.084Z</time></trkpt><trkpt lat="45.736445" lon="11.4032617"><ele>191.0</ele><time>2026-04-15T14:50:07.084Z</time></trkpt><trkpt lat="45.736415" lon="11.4033667"><ele>191.0</ele><time>2026-04-15T14:50:08.085Z</time></trkpt><trkpt lat="45.7363633" lon="11.40351"><ele>191.0</ele><time>2026-04-15T14:50:10.084Z</time></trkpt><trkpt lat="45.73632" lon="11.4036333"><ele>191.0</ele><time>2026-04-15T14:50:12.085Z</time></trkpt><trkpt lat="45.73629" lon="11.4037617"><ele>191.0</ele><time>2026-04-15T14:50:14.084Z</time></trkpt><trkpt lat="45.7362783" lon="11.4039167"><ele>191.0</ele><time>2026-04-15T14:50:16.085Z</time></trkpt><trkpt lat="45.7362933" lon="11.40403"><ele>191.0</ele><time>2026-04-15T14:50:18.085Z</time></trkpt><trkpt lat="45.7363117" lon="11.4041433"><ele>191.16666666666666</ele><time>2026-04-15T14:50:21.085Z</time></trkpt><trkpt lat="45.7363183" lon="11.4042717"><ele>191.33333333333331</ele><time>2026-04-15T14:50:23.084Z</time></trkpt><trkpt lat="45.736325" lon="11.4043617"><ele>191.5</ele><time>2026-04-15T14:50:24.084Z</time></trkpt><trkpt lat="45.7363383" lon="11.4044583"><ele>191.66666666666666</ele><time>2026-04-15T14:50:25.084Z</time></trkpt><trkpt lat="45.736375" lon="11.40455"><ele>191.83333333333334</ele><time>2026-04-15T14:50:26.085Z</time></trkpt><trkpt lat="45.7364333" lon="11.4046317"><ele>192.0</ele><time>2026-04-15T14:50:27.084Z</time></trkpt><trkpt lat="45.7365117" lon="11.4047017"><ele>192.2</ele><time>2026-04-15T14:50:28.085Z</time></trkpt><trkpt lat="45.7366033" lon="11.404735"><ele>192.39999999999998</ele><time>2026-04-15T14:50:29.085Z</time></trkpt><trkpt lat="45.736705" lon="11.4047317"><ele>192.60000000000002</ele><time>2026-04-15T14:50:30.085Z</time></trkpt><trkpt lat="45.7367983" lon="11.4047417"><ele>192.8</ele><time>2026-04-15T14:50:31.085Z</time></trkpt><trkpt lat="45.7368833" lon="11.4047733"><ele>193.0</ele><time>2026-04-15T14:50:32.084Z</time></trkpt><trkpt lat="45.7369583" lon="11.404835"><ele>194.60000000000002</ele><time>2026-04-15T14:50:33.085Z</time></trkpt><trkpt lat="45.7370217" lon="11.4049217"><ele>196.20000000000002</ele><time>2026-04-15T14:50:34.085Z</time></trkpt><trkpt lat="45.73707" lon="11.4050467"><ele>197.8</ele><time>2026-04-15T14:50:35.084Z</time></trkpt><trkpt lat="45.7371167" lon="11.4051933"><ele>199.4</ele><time>2026-04-15T14:50:36.085Z</time></trkpt><trkpt lat="45.7371567" lon="11.4053367"><ele>201.0</ele><time>2026-04-15T14:50:37.085Z</time></trkpt><trkpt lat="45.737195" lon="11.405485"><ele>200.8</ele><time>2026-04-15T14:50:38.085Z</time></trkpt><trkpt lat="45.7372333" lon="11.405635"><ele>200.60000000000002</ele><time>2026-04-15T14:50:39.084Z</time></trkpt><trkpt lat="45.737265" lon="11.4057817"><ele>200.4</ele><time>2026-04-15T14:50:40.084Z</time></trkpt><trkpt lat="45.7373017" lon="11.4059183"><ele>200.2</ele><time>2026-04-15T14:50:41.084Z</time></trkpt><trkpt lat="45.737335" lon="11.40607"><ele>200.0</ele><time>2026-04-15T14:50:42.084Z</time></trkpt><trkpt lat="45.73738" lon="11.406225"><ele>200.0</ele><time>2026-04-15T14:50:43.084Z</time></trkpt><trkpt lat="45.7374233" lon="11.4063817"><ele>200.0</ele><time>2026-04-15T14:50:44.085Z</time></trkpt><trkpt lat="45.7374617" lon="11.40655"><ele>200.0</ele><time>2026-04-15T14:50:45.084Z</time></trkpt><trkpt lat="45.7375033" lon="11.4067183"><ele>200.0</ele><time>2026-04-15T14:50:46.085Z</time></trkpt><trkpt lat="45.7375567" lon="11.4068933"><ele>200.0</ele><time>2026-04-15T14:50:47.085Z</time></trkpt><trkpt lat="45.737595" lon="11.4070733"><ele>200.0</ele><time>2026-04-15T14:50:48.084Z</time></trkpt><trkpt lat="45.7376483" lon="11.4072583"><ele>200.0</ele><time>2026-04-15T14:50:49.084Z</time></trkpt><trkpt lat="45.737705" lon="11.40744"><ele>200.0</ele><time>2026-04-15T14:50:50.084Z</time></trkpt><trkpt lat="45.7377533" lon="11.4076283"><ele>200.75</ele><time>2026-04-15T14:50:51.085Z</time></trkpt><trkpt lat="45.7378117" lon="11.4078167"><ele>201.5</ele><time>2026-04-15T14:50:52.084Z</time></trkpt><trkpt lat="45.737875" lon="11.4080067"><ele>202.25</ele><time>2026-04-15T14:50:53.084Z</time></trkpt><trkpt lat="45.73793" lon="11.4082017"><ele>203.0</ele><time>2026-04-15T14:50:54.085Z</time></trkpt><trkpt lat="45.7379783" lon="11.4083983"><ele>203.0</ele><time>2026-04-15T14:50:55.084Z</time></trkpt><trkpt lat="45.738035" lon="11.4085883"><ele>203.0</ele><time>2026-04-15T14:50:56.085Z</time></trkpt><trkpt lat="45.7381" lon="11.4087867"><ele>203.0</ele><time>2026-04-15T14:50:57.085Z</time></trkpt><trkpt lat="45.73818" lon="11.409"><ele>202.33333333333334</ele><time>2026-04-15T14:50:58.085Z</time></trkpt><trkpt lat="45.7382767" lon="11.4092167"><ele>201.66666666666669</ele><time>2026-04-15T14:50:59.085Z</time></trkpt><trkpt lat="45.73838" lon="11.4094317"><ele>201.0</ele><time>2026-04-15T14:51:00.085Z</time></trkpt><trkpt lat="45.7384833" lon="11.409645"><ele>201.33333333333331</ele><time>2026-04-15T14:51:01.084Z</time></trkpt><trkpt lat="45.738595" lon="11.4098667"><ele>201.66666666666666</ele><time>2026-04-15T14:51:02.084Z</time></trkpt><trkpt lat="45.73872" lon="11.4101033"><ele>202.0</ele><time>2026-04-15T14:51:03.084Z</time></trkpt><trkpt lat="45.73884" lon="11.4103383"><ele>202.0</ele><time>2026-04-15T14:51:04.085Z</time></trkpt><trkpt lat="45.7389583" lon="11.4105667"><ele>202.0</ele><time>2026-04-15T14:51:05.085Z</time></trkpt><trkpt lat="45.7390683" lon="11.41079"><ele>202.0</ele><time>2026-04-15T14:51:06.085Z</time></trkpt><trkpt lat="45.7391733" lon="11.4110033"><ele>202.0</ele><time>2026-04-15T14:51:07.084Z</time></trkpt><trkpt lat="45.7392817" lon="11.4112117"><ele>202.0</ele><time>2026-04-15T14:51:08.084Z</time></trkpt><trkpt lat="45.739385" lon="11.4114233"><ele>202.0</ele><time>2026-04-15T14:51:09.085Z</time></trkpt><trkpt lat="45.739495" lon="11.4116283"><ele>202.0</ele><time>2026-04-15T14:51:10.084Z</time></trkpt><trkpt lat="45.7396117" lon="11.41184"><ele>202.0</ele><time>2026-04-15T14:51:11.084Z</time></trkpt><trkpt lat="45.7397283" lon="11.41205"><ele>202.0</ele><time>2026-04-15T14:51:12.083Z</time></trkpt><trkpt lat="45.7398417" lon="11.412255"><ele>202.0</ele><time>2026-04-15T14:51:13.083Z</time></trkpt><trkpt lat="45.7399567" lon="11.4124717"><ele>202.0</ele><time>2026-04-15T14:51:14.083Z</time></trkpt><trkpt lat="45.740065" lon="11.4127"><ele>202.0</ele><time>2026-04-15T14:51:15.083Z</time></trkpt><trkpt lat="45.7401733" lon="11.4129183"><ele>202.66666666666666</ele><time>2026-04-15T14:51:16.083Z</time></trkpt><trkpt lat="45.740285" lon="11.4131417"><ele>203.33333333333331</ele><time>2026-04-15T14:51:17.083Z</time></trkpt><trkpt lat="45.7404" lon="11.41336"><ele>204.0</ele><time>2026-04-15T14:51:18.084Z</time></trkpt><trkpt lat="45.7405117" lon="11.4135783"><ele>204.0</ele><time>2026-04-15T14:51:19.083Z</time></trkpt><trkpt lat="45.7406233" lon="11.4137983"><ele>204.0</ele><time>2026-04-15T14:51:20.083Z</time></trkpt><trkpt lat="45.7407433" lon="11.4140133"><ele>204.0</ele><time>2026-04-15T14:51:21.083Z</time></trkpt><trkpt lat="45.74086" lon="11.4142283"><ele>204.66666666666669</ele><time>2026-04-15T14:51:22.083Z</time></trkpt><trkpt lat="45.7409767" lon="11.4144433"><ele>205.33333333333334</ele><time>2026-04-15T14:51:23.084Z</time></trkpt><trkpt lat="45.7411" lon="11.4146633"><ele>206.0</ele><time>2026-04-15T14:51:24.083Z</time></trkpt><trkpt lat="45.7412233" lon="11.4148883"><ele>206.0</ele><time>2026-04-15T14:51:25.083Z</time></trkpt><trkpt lat="45.7413367" lon="11.4151033"><ele>206.0</ele><time>2026-04-15T14:51:26.083Z</time></trkpt><trkpt lat="45.7414483" lon="11.4153117"><ele>206.0</ele><time>2026-04-15T14:51:27.083Z</time></trkpt><trkpt lat="45.74155" lon="11.415525"><ele>206.66666666666669</ele><time>2026-04-15T14:51:28.083Z</time></trkpt><trkpt lat="45.7416467" lon="11.415725"><ele>207.33333333333331</ele><time>2026-04-15T14:51:29.084Z</time></trkpt><trkpt lat="45.7417367" lon="11.415915"><ele>208.0</ele><time>2026-04-15T14:51:30.084Z</time></trkpt><trkpt lat="45.7418217" lon="11.4160933"><ele>208.25</ele><time>2026-04-15T14:51:31.084Z</time></trkpt><trkpt lat="45.7419117" lon="11.4162567"><ele>208.5</ele><time>2026-04-15T14:51:32.084Z</time></trkpt><trkpt lat="45.7419983" lon="11.4164233"><ele>208.75</ele><time>2026-04-15T14:51:33.084Z</time></trkpt><trkpt lat="45.7420867" lon="11.4165817"><ele>209.0</ele><time>2026-04-15T14:51:34.083Z</time></trkpt><trkpt lat="45.742165" lon="11.4167283"><ele>209.0</ele><time>2026-04-15T14:51:35.084Z</time></trkpt><trkpt lat="45.7422417" lon="11.4168683"><ele>209.0</ele><time>2026-04-15T14:51:36.084Z</time></trkpt><trkpt lat="45.7423017" lon="11.4169933"><ele>209.0</ele><time>2026-04-15T14:51:37.084Z</time></trkpt><trkpt lat="45.7423567" lon="11.4171033"><ele>209.0</ele><time>2026-04-15T14:51:38.084Z</time></trkpt><trkpt lat="45.7424067" lon="11.417195"><ele>209.0</ele><time>2026-04-15T14:51:39.083Z</time></trkpt><trkpt lat="45.74246" lon="11.417285"><ele>209.00000000000003</ele><time>2026-04-15T14:51:40.084Z</time></trkpt><trkpt lat="45.7425083" lon="11.4173733"><ele>209.0</ele><time>2026-04-15T14:51:41.083Z</time></trkpt><trkpt lat="45.742555" lon="11.4174667"><ele>209.0</ele><time>2026-04-15T14:51:42.084Z</time></trkpt><trkpt lat="45.742605" lon="11.4175567"><ele>209.0</ele><time>2026-04-15T14:51:43.083Z</time></trkpt><trkpt lat="45.7426533" lon="11.4176483"><ele>209.00000000000003</ele><time>2026-04-15T14:51:44.083Z</time></trkpt><trkpt lat="45.7426983" lon="11.4177317"><ele>209.0</ele><time>2026-04-15T14:51:45.083Z</time></trkpt><trkpt lat="45.7427367" lon="11.417815"><ele>209.66666666666669</ele><time>2026-04-15T14:51:46.083Z</time></trkpt><trkpt lat="45.74278" lon="11.4178983"><ele>210.33333333333334</ele><time>2026-04-15T14:51:47.084Z</time></trkpt><trkpt lat="45.7428317" lon="11.41799"><ele>211.0</ele><time>2026-04-15T14:51:48.083Z</time></trkpt><trkpt lat="45.7428783" lon="11.4180867"><ele>211.66666666666669</ele><time>2026-04-15T14:51:49.084Z</time></trkpt><trkpt lat="45.7429283" lon="11.4181883"><ele>212.33333333333334</ele><time>2026-04-15T14:51:50.084Z</time></trkpt><trkpt lat="45.74298" lon="11.418295"><ele>213.0</ele><time>2026-04-15T14:51:51.083Z</time></trkpt><trkpt lat="45.74304" lon="11.418405"><ele>213.4</ele><time>2026-04-15T14:51:52.083Z</time></trkpt><trkpt lat="45.7431017" lon="11.4185233"><ele>213.8</ele><time>2026-04-15T14:51:53.084Z</time></trkpt><trkpt lat="45.743165" lon="11.4186333"><ele>214.2</ele><time>2026-04-15T14:51:54.083Z</time></trkpt><trkpt lat="45.74322" lon="11.4187533"><ele>214.6</ele><time>2026-04-15T14:51:55.083Z</time></trkpt><trkpt lat="45.7432817" lon="11.4188733"><ele>215.0</ele><time>2026-04-15T14:51:56.084Z</time></trkpt><trkpt lat="45.74335" lon="11.4190067"><ele>215.25</ele><time>2026-04-15T14:51:57.084Z</time></trkpt><trkpt lat="45.743425" lon="11.4191467"><ele>215.5</ele><time>2026-04-15T14:51:58.083Z</time></trkpt><trkpt lat="45.7434983" lon="11.419295"><ele>215.75</ele><time>2026-04-15T14:51:59.083Z</time></trkpt><trkpt lat="45.7435833" lon="11.4194483"><ele>216.0</ele><time>2026-04-15T14:52:00.083Z</time></trkpt><trkpt lat="45.7436717" lon="11.4196167"><ele>216.5</ele><time>2026-04-15T14:52:01.084Z</time></trkpt><trkpt lat="45.74376" lon="11.4197867"><ele>217.0</ele><time>2026-04-15T14:52:02.083Z</time></trkpt><trkpt lat="45.743845" lon="11.4199417"><ele>217.5</ele><time>2026-04-15T14:52:03.083Z</time></trkpt><trkpt lat="45.7439217" lon="11.420095"><ele>218.0</ele><time>2026-04-15T14:52:04.084Z</time></trkpt><trkpt lat="45.744" lon="11.4202417"><ele>218.0</ele><time>2026-04-15T14:52:05.083Z</time></trkpt><trkpt lat="45.7440767" lon="11.4203833"><ele>218.0</ele><time>2026-04-15T14:52:06.083Z</time></trkpt><trkpt lat="45.7441517" lon="11.4205133"><ele>218.0</ele><time>2026-04-15T14:52:07.084Z</time></trkpt><trkpt lat="45.7442183" lon="11.420635"><ele>218.0</ele><time>2026-04-15T14:52:08.083Z</time></trkpt><trkpt lat="45.7442783" lon="11.4207467"><ele>218.0</ele><time>2026-04-15T14:52:09.083Z</time></trkpt><trkpt lat="45.7443183" lon="11.420845"><ele>218.0</ele><time>2026-04-15T14:52:10.083Z</time></trkpt><trkpt lat="45.7443433" lon="11.4209317"><ele>218.0</ele><time>2026-04-15T14:52:11.084Z</time></trkpt><trkpt lat="45.7443183" lon="11.4210717"><ele>218.0</ele><time>2026-04-15T14:52:13.084Z</time></trkpt><trkpt lat="45.74421" lon="11.4211667"><ele>218.0</ele><time>2026-04-15T14:52:15.083Z</time></trkpt><trkpt lat="45.7441183" lon="11.4212383"><ele>218.0</ele><time>2026-04-15T14:52:17.084Z</time></trkpt><trkpt lat="45.7440467" lon="11.42127"><ele>218.60000000000002</ele><time>2026-04-15T14:52:41.084Z</time></trkpt><trkpt lat="45.7439733" lon="11.42141"><ele>219.20000000000002</ele><time>2026-04-15T14:52:43.083Z</time></trkpt><trkpt lat="45.7439367" lon="11.421495"><ele>219.8</ele><time>2026-04-15T14:52:44.084Z</time></trkpt><trkpt lat="45.7438967" lon="11.421595"><ele>220.4</ele><time>2026-04-15T14:52:45.083Z</time></trkpt><trkpt lat="45.7438683" lon="11.4217217"><ele>221.0</ele><time>2026-04-15T14:52:46.083Z</time></trkpt><trkpt lat="45.74385" lon="11.4218633"><ele>221.0</ele><time>2026-04-15T14:52:47.084Z</time></trkpt><trkpt lat="45.74384" lon="11.42201"><ele>221.0</ele><time>2026-04-15T14:52:48.083Z</time></trkpt><trkpt lat="45.7438333" lon="11.4221733"><ele>221.0</ele><time>2026-04-15T14:52:49.083Z</time></trkpt><trkpt lat="45.7438367" lon="11.4223433"><ele>221.0</ele><time>2026-04-15T14:52:50.084Z</time></trkpt><trkpt lat="45.743845" lon="11.42252"><ele>221.0</ele><time>2026-04-15T14:52:51.084Z</time></trkpt><trkpt lat="45.743855" lon="11.422705"><ele>221.0</ele><time>2026-04-15T14:52:52.083Z</time></trkpt><trkpt lat="45.7438733" lon="11.4229067"><ele>221.0</ele><time>2026-04-15T14:52:53.084Z</time></trkpt><trkpt lat="45.7439183" lon="11.4231483"><ele>221.0</ele><time>2026-04-15T14:52:54.084Z</time></trkpt><trkpt lat="45.7439633" lon="11.42339"><ele>220.75</ele><time>2026-04-15T14:52:55.083Z</time></trkpt><trkpt lat="45.7440217" lon="11.4236117"><ele>220.5</ele><time>2026-04-15T14:52:56.084Z</time></trkpt><trkpt lat="45.7440917" lon="11.4238017"><ele>220.25</ele><time>2026-04-15T14:52:57.084Z</time></trkpt><trkpt lat="45.7441517" lon="11.4239517"><ele>220.0</ele><time>2026-04-15T14:52:58.083Z</time></trkpt><trkpt lat="45.7442117" lon="11.4240583"><ele>219.8</ele><time>2026-04-15T14:52:59.084Z</time></trkpt><trkpt lat="45.7442683" lon="11.4241333"><ele>219.6</ele><time>2026-04-15T14:53:00.083Z</time></trkpt><trkpt lat="45.744325" lon="11.4241833"><ele>219.39999999999998</ele><time>2026-04-15T14:53:01.083Z</time></trkpt><trkpt lat="45.7444433" lon="11.4241817"><ele>219.2</ele><time>2026-04-15T14:53:03.083Z</time></trkpt><trkpt lat="45.7445233" lon="11.42412"><ele>219.0</ele><time>2026-04-15T14:53:04.084Z</time></trkpt><trkpt lat="45.7446133" lon="11.42402"><ele>219.66666666666666</ele><time>2026-04-15T14:53:05.084Z</time></trkpt><trkpt lat="45.7446967" lon="11.4239483"><ele>220.33333333333331</ele><time>2026-04-15T14:53:06.084Z</time></trkpt><trkpt lat="45.7447783" lon="11.423905"><ele>221.0</ele><time>2026-04-15T14:53:07.084Z</time></trkpt><trkpt lat="45.7448433" lon="11.42391"><ele>221.66666666666666</ele><time>2026-04-15T14:53:08.084Z</time></trkpt><trkpt lat="45.7448967" lon="11.4239633"><ele>222.33333333333331</ele><time>2026-04-15T14:53:09.083Z</time></trkpt><trkpt lat="45.74497" lon="11.4240483"><ele>223.0</ele><time>2026-04-15T14:53:10.083Z</time></trkpt><trkpt lat="45.7450667" lon="11.42418"><ele>223.0</ele><time>2026-04-15T14:53:11.083Z</time></trkpt><trkpt lat="45.7451717" lon="11.4243667"><ele>223.0</ele><time>2026-04-15T14:53:12.083Z</time></trkpt><trkpt lat="45.74527" lon="11.424545"><ele>223.0</ele><time>2026-04-15T14:53:13.084Z</time></trkpt><trkpt lat="45.745365" lon="11.4246967"><ele>223.5</ele><time>2026-04-15T14:53:14.084Z</time></trkpt><trkpt lat="45.745455" lon="11.4247983"><ele>224.0</ele><time>2026-04-15T14:53:15.083Z</time></trkpt><trkpt lat="45.745545" lon="11.4248717"><ele>224.5</ele><time>2026-04-15T14:53:16.084Z</time></trkpt><trkpt lat="45.74565" lon="11.4249267"><ele>225.0</ele><time>2026-04-15T14:53:17.083Z</time></trkpt><trkpt lat="45.7457683" lon="11.424965"><ele>225.0</ele><time>2026-04-15T14:53:18.083Z</time></trkpt><trkpt lat="45.7458717" lon="11.42501"><ele>225.0</ele><time>2026-04-15T14:53:19.083Z</time></trkpt><trkpt lat="45.7459517" lon="11.4250867"><ele>225.0</ele><time>2026-04-15T14:53:20.083Z</time></trkpt><trkpt lat="45.7460217" lon="11.4251717"><ele>225.0</ele><time>2026-04-15T14:53:21.083Z</time></trkpt><trkpt lat="45.74608" lon="11.4252583"><ele>225.0</ele><time>2026-04-15T14:53:22.083Z</time></trkpt><trkpt lat="45.7461183" lon="11.4253333"><ele>225.0</ele><time>2026-04-15T14:53:23.084Z</time></trkpt><trkpt lat="45.7462017" lon="11.4254233"><ele>224.83333333333334</ele><time>2026-04-15T14:53:25.084Z</time></trkpt><trkpt lat="45.74627" lon="11.425335"><ele>224.66666666666669</ele><time>2026-04-15T14:55:08.083Z</time></trkpt><trkpt lat="45.7463083" lon="11.4252567"><ele>224.5</ele><time>2026-04-15T14:55:11.084Z</time></trkpt><trkpt lat="45.74637" lon="11.4251983"><ele>224.33333333333334</ele><time>2026-04-15T14:55:16.084Z</time></trkpt><trkpt lat="45.7463083" lon="11.42525"><ele>224.16666666666669</ele><time>2026-04-15T14:55:22.084Z</time></trkpt><trkpt lat="45.7463317" lon="11.425125"><ele>224.0</ele><time>2026-04-15T14:55:35.084Z</time></trkpt><trkpt lat="45.746405" lon="11.425095"><ele>224.0</ele><time>2026-04-15T14:55:37.083Z</time></trkpt><trkpt lat="45.7464517" lon="11.4250183"><ele>224.0</ele><time>2026-04-15T14:55:40.083Z</time></trkpt><trkpt lat="45.7464167" lon="11.4249233"><ele>224.0</ele><time>2026-04-15T14:55:44.083Z</time></trkpt><trkpt lat="45.7463133" lon="11.4249667"><ele>224.0</ele><time>2026-04-15T14:55:49.084Z</time></trkpt></trkseg></trk></gpx>